<?xml version="1.0" encoding="UTF-8" standalone="no" ?>
<gpx xmlns="http://www.topografix.com/GPX/1/1" xmlns:xsi="http://www.w3.org/2001/XMLSchema-instance" xsi:schemaLocation="http://www.topografix.com/GPX/1/1 http://www.topografix.com/GPX/1/1/gpx.xsd" version="1.1" creator="VisuGPX - https://www.visugpx.com">
  <metadata>
    <name>Vélo Evasion Saverne et Environs Sortie du 04/06</name>
    <desc><![CDATA[Sortie VTT avec le club VTT Vélo Evasion Saverne et Environs 
27 Km]]></desc>
  </metadata>
  <trk>
    <name><![CDATA[ADi2011/06/04_13:59]]></name>
    <trkseg>
      <trkpt lat="48.73145" lon="7.35233">
        <ele>251.023605</ele>
        <time>2011-06-04T11:59:23Z</time>
      </trkpt>
      <trkpt lat="48.73154" lon="7.35193">
        <ele>250.066574</ele>
        <time>2011-06-04T12:10:48Z</time>
      </trkpt>
      <trkpt lat="48.73167" lon="7.35154">
        <ele>251.38298</ele>
        <time>2011-06-04T12:10:58Z</time>
      </trkpt>
      <trkpt lat="48.7319" lon="7.3513">
        <ele>249.285324</ele>
        <time>2011-06-04T12:11:08Z</time>
      </trkpt>
      <trkpt lat="48.73218" lon="7.35132">
        <ele>247.793137</ele>
        <time>2011-06-04T12:11:20Z</time>
      </trkpt>
      <trkpt lat="48.73234" lon="7.35098">
        <ele>246.965012</ele>
        <time>2011-06-04T12:11:30Z</time>
      </trkpt>
      <trkpt lat="48.73247" lon="7.35061">
        <ele>248.57048</ele>
        <time>2011-06-04T12:11:40Z</time>
      </trkpt>
      <trkpt lat="48.73253" lon="7.35021">
        <ele>251.847824</ele>
        <time>2011-06-04T12:11:50Z</time>
      </trkpt>
      <trkpt lat="48.73265" lon="7.34985">
        <ele>257.726898</ele>
        <time>2011-06-04T12:12:01Z</time>
      </trkpt>
      <trkpt lat="48.73277" lon="7.34947">
        <ele>260.937836</ele>
        <time>2011-06-04T12:12:15Z</time>
      </trkpt>
      <trkpt lat="48.73301" lon="7.34923">
        <ele>262.297211</ele>
        <time>2011-06-04T12:12:29Z</time>
      </trkpt>
      <trkpt lat="48.73321" lon="7.34896">
        <ele>263.914398</ele>
        <time>2011-06-04T12:12:42Z</time>
      </trkpt>
      <trkpt lat="48.73336" lon="7.34862">
        <ele>265.953461</ele>
        <time>2011-06-04T12:12:55Z</time>
      </trkpt>
      <trkpt lat="48.73351" lon="7.34827">
        <ele>270.633148</ele>
        <time>2011-06-04T12:13:09Z</time>
      </trkpt>
      <trkpt lat="48.7337" lon="7.34798">
        <ele>277.070648</ele>
        <time>2011-06-04T12:13:21Z</time>
      </trkpt>
      <trkpt lat="48.73352" lon="7.34764">
        <ele>280.265961</ele>
        <time>2011-06-04T12:13:46Z</time>
      </trkpt>
      <trkpt lat="48.7333" lon="7.34737">
        <ele>281.320648</ele>
        <time>2011-06-04T12:13:55Z</time>
      </trkpt>
      <trkpt lat="48.73313" lon="7.34704">
        <ele>284.547211</ele>
        <time>2011-06-04T12:14:05Z</time>
      </trkpt>
      <trkpt lat="48.73291" lon="7.34677">
        <ele>285.375336</ele>
        <time>2011-06-04T12:14:13Z</time>
      </trkpt>
      <trkpt lat="48.73272" lon="7.34644">
        <ele>289.594086</ele>
        <time>2011-06-04T12:14:23Z</time>
      </trkpt>
      <trkpt lat="48.73251" lon="7.34613">
        <ele>291.836273</ele>
        <time>2011-06-04T12:14:33Z</time>
      </trkpt>
      <trkpt lat="48.73231" lon="7.34581">
        <ele>293.859711</ele>
        <time>2011-06-04T12:14:43Z</time>
      </trkpt>
      <trkpt lat="48.73216" lon="7.34542">
        <ele>297.937836</ele>
        <time>2011-06-04T12:14:52Z</time>
      </trkpt>
      <trkpt lat="48.73198" lon="7.34511">
        <ele>300.687836</ele>
        <time>2011-06-04T12:15:01Z</time>
      </trkpt>
      <trkpt lat="48.73175" lon="7.34483">
        <ele>302.805023</ele>
        <time>2011-06-04T12:15:11Z</time>
      </trkpt>
      <trkpt lat="48.73154" lon="7.34454">
        <ele>305.586273</ele>
        <time>2011-06-04T12:15:21Z</time>
      </trkpt>
      <trkpt lat="48.73134" lon="7.34426">
        <ele>307.953461</ele>
        <time>2011-06-04T12:15:31Z</time>
      </trkpt>
      <trkpt lat="48.73112" lon="7.34398">
        <ele>311.508148</ele>
        <time>2011-06-04T12:15:42Z</time>
      </trkpt>
      <trkpt lat="48.73092" lon="7.34368">
        <ele>308.797211</ele>
        <time>2011-06-04T12:15:52Z</time>
      </trkpt>
      <trkpt lat="48.73071" lon="7.34339">
        <ele>304.992523</ele>
        <time>2011-06-04T12:16:03Z</time>
      </trkpt>
      <trkpt lat="48.73048" lon="7.3431">
        <ele>302.406586</ele>
        <time>2011-06-04T12:16:13Z</time>
      </trkpt>
      <trkpt lat="48.73025" lon="7.34286">
        <ele>299.469086</ele>
        <time>2011-06-04T12:16:21Z</time>
      </trkpt>
      <trkpt lat="48.73001" lon="7.34258">
        <ele>298.351898</ele>
        <time>2011-06-04T12:16:30Z</time>
      </trkpt>
      <trkpt lat="48.72981" lon="7.34224">
        <ele>297.711273</ele>
        <time>2011-06-04T12:16:37Z</time>
      </trkpt>
      <trkpt lat="48.72962" lon="7.34192">
        <ele>296.984711</ele>
        <time>2011-06-04T12:16:45Z</time>
      </trkpt>
      <trkpt lat="48.72944" lon="7.34161">
        <ele>297.039398</ele>
        <time>2011-06-04T12:16:52Z</time>
      </trkpt>
      <trkpt lat="48.72924" lon="7.34129">
        <ele>299.148773</ele>
        <time>2011-06-04T12:16:58Z</time>
      </trkpt>
      <trkpt lat="48.72904" lon="7.34099">
        <ele>300.656586</ele>
        <time>2011-06-04T12:17:07Z</time>
      </trkpt>
      <trkpt lat="48.72889" lon="7.34062">
        <ele>304.133148</ele>
        <time>2011-06-04T12:17:15Z</time>
      </trkpt>
      <trkpt lat="48.7287" lon="7.34029">
        <ele>305.930023</ele>
        <time>2011-06-04T12:17:22Z</time>
      </trkpt>
      <trkpt lat="48.7286" lon="7.33989">
        <ele>309.539398</ele>
        <time>2011-06-04T12:17:30Z</time>
      </trkpt>
      <trkpt lat="48.7285" lon="7.3395">
        <ele>307.258148</ele>
        <time>2011-06-04T12:17:37Z</time>
      </trkpt>
      <trkpt lat="48.72837" lon="7.33907">
        <ele>314.070648</ele>
        <time>2011-06-04T12:17:44Z</time>
      </trkpt>
      <trkpt lat="48.72826" lon="7.3387">
        <ele>318.265961</ele>
        <time>2011-06-04T12:17:51Z</time>
      </trkpt>
      <trkpt lat="48.72817" lon="7.3383">
        <ele>322.430023</ele>
        <time>2011-06-04T12:17:59Z</time>
      </trkpt>
      <trkpt lat="48.72805" lon="7.33789">
        <ele>326.578461</ele>
        <time>2011-06-04T12:18:07Z</time>
      </trkpt>
      <trkpt lat="48.72787" lon="7.33758">
        <ele>324.000336</ele>
        <time>2011-06-04T12:18:14Z</time>
      </trkpt>
      <trkpt lat="48.72772" lon="7.33719">
        <ele>323.211273</ele>
        <time>2011-06-04T12:18:22Z</time>
      </trkpt>
      <trkpt lat="48.72752" lon="7.33689">
        <ele>323.117523</ele>
        <time>2011-06-04T12:18:29Z</time>
      </trkpt>
      <trkpt lat="48.72729" lon="7.33663">
        <ele>321.937836</ele>
        <time>2011-06-04T12:18:37Z</time>
      </trkpt>
      <trkpt lat="48.72706" lon="7.33635">
        <ele>323.609711</ele>
        <time>2011-06-04T12:18:45Z</time>
      </trkpt>
      <trkpt lat="48.72683" lon="7.33606">
        <ele>325.961273</ele>
        <time>2011-06-04T12:18:53Z</time>
      </trkpt>
      <trkpt lat="48.72661" lon="7.33582">
        <ele>326.164398</ele>
        <time>2011-06-04T12:19:00Z</time>
      </trkpt>
      <trkpt lat="48.72638" lon="7.33556">
        <ele>326.234711</ele>
        <time>2011-06-04T12:19:09Z</time>
      </trkpt>
      <trkpt lat="48.72612" lon="7.33534">
        <ele>326.070648</ele>
        <time>2011-06-04T12:19:17Z</time>
      </trkpt>
      <trkpt lat="48.72589" lon="7.33512">
        <ele>328.953461</ele>
        <time>2011-06-04T12:19:24Z</time>
      </trkpt>
      <trkpt lat="48.72563" lon="7.3349">
        <ele>330.015961</ele>
        <time>2011-06-04T12:19:32Z</time>
      </trkpt>
      <trkpt lat="48.72537" lon="7.33471">
        <ele>330.578461</ele>
        <time>2011-06-04T12:19:41Z</time>
      </trkpt>
      <trkpt lat="48.7251" lon="7.33455">
        <ele>333.351898</ele>
        <time>2011-06-04T12:19:50Z</time>
      </trkpt>
      <trkpt lat="48.72485" lon="7.33437">
        <ele>334.359711</ele>
        <time>2011-06-04T12:19:59Z</time>
      </trkpt>
      <trkpt lat="48.72459" lon="7.3342">
        <ele>335.484711</ele>
        <time>2011-06-04T12:20:05Z</time>
      </trkpt>
      <trkpt lat="48.72435" lon="7.33397">
        <ele>332.555023</ele>
        <time>2011-06-04T12:20:13Z</time>
      </trkpt>
      <trkpt lat="48.72412" lon="7.33371">
        <ele>332.203461</ele>
        <time>2011-06-04T12:20:22Z</time>
      </trkpt>
      <trkpt lat="48.72389" lon="7.33342">
        <ele>333.515961</ele>
        <time>2011-06-04T12:20:31Z</time>
      </trkpt>
      <trkpt lat="48.72364" lon="7.33316">
        <ele>335.492523</ele>
        <time>2011-06-04T12:20:40Z</time>
      </trkpt>
      <trkpt lat="48.72341" lon="7.33292">
        <ele>332.898773</ele>
        <time>2011-06-04T12:20:47Z</time>
      </trkpt>
      <trkpt lat="48.72314" lon="7.33282">
        <ele>331.398773</ele>
        <time>2011-06-04T12:20:53Z</time>
      </trkpt>
      <trkpt lat="48.72286" lon="7.33268">
        <ele>331.976898</ele>
        <time>2011-06-04T12:21:04Z</time>
      </trkpt>
      <trkpt lat="48.72257" lon="7.33257">
        <ele>336.086273</ele>
        <time>2011-06-04T12:21:13Z</time>
      </trkpt>
      <trkpt lat="48.72229" lon="7.33251">
        <ele>337.000336</ele>
        <time>2011-06-04T12:21:22Z</time>
      </trkpt>
      <trkpt lat="48.72205" lon="7.33232">
        <ele>338.375336</ele>
        <time>2011-06-04T12:21:32Z</time>
      </trkpt>
      <trkpt lat="48.72179" lon="7.33204">
        <ele>339.383148</ele>
        <time>2011-06-04T12:21:39Z</time>
      </trkpt>
      <trkpt lat="48.72158" lon="7.33176">
        <ele>339.578461</ele>
        <time>2011-06-04T12:21:45Z</time>
      </trkpt>
      <trkpt lat="48.72142" lon="7.3314">
        <ele>339.687836</ele>
        <time>2011-06-04T12:21:53Z</time>
      </trkpt>
      <trkpt lat="48.72136" lon="7.33098">
        <ele>343.359711</ele>
        <time>2011-06-04T12:22:06Z</time>
      </trkpt>
      <trkpt lat="48.72133" lon="7.33055">
        <ele>346.492523</ele>
        <time>2011-06-04T12:22:17Z</time>
      </trkpt>
      <trkpt lat="48.72136" lon="7.33014">
        <ele>348.148773</ele>
        <time>2011-06-04T12:22:27Z</time>
      </trkpt>
      <trkpt lat="48.72139" lon="7.32969">
        <ele>349.180023</ele>
        <time>2011-06-04T12:22:38Z</time>
      </trkpt>
      <trkpt lat="48.72141" lon="7.32924">
        <ele>349.898773</ele>
        <time>2011-06-04T12:22:48Z</time>
      </trkpt>
      <trkpt lat="48.72141" lon="7.32879">
        <ele>350.156586</ele>
        <time>2011-06-04T12:22:57Z</time>
      </trkpt>
      <trkpt lat="48.72136" lon="7.32838">
        <ele>349.750336</ele>
        <time>2011-06-04T12:23:06Z</time>
      </trkpt>
      <trkpt lat="48.72122" lon="7.328">
        <ele>349.656586</ele>
        <time>2011-06-04T12:23:15Z</time>
      </trkpt>
      <trkpt lat="48.72105" lon="7.32765">
        <ele>351.469086</ele>
        <time>2011-06-04T12:23:25Z</time>
      </trkpt>
      <trkpt lat="48.72086" lon="7.32734">
        <ele>351.914398</ele>
        <time>2011-06-04T12:24:55Z</time>
      </trkpt>
      <trkpt lat="48.72067" lon="7.32696">
        <ele>347.219086</ele>
        <time>2011-06-04T12:25:01Z</time>
      </trkpt>
      <trkpt lat="48.72049" lon="7.32665">
        <ele>343.578461</ele>
        <time>2011-06-04T12:25:07Z</time>
      </trkpt>
      <trkpt lat="48.72026" lon="7.32634">
        <ele>339.055023</ele>
        <time>2011-06-04T12:25:13Z</time>
      </trkpt>
      <trkpt lat="48.71999" lon="7.32608">
        <ele>332.390961</ele>
        <time>2011-06-04T12:25:20Z</time>
      </trkpt>
      <trkpt lat="48.71973" lon="7.32588">
        <ele>326.508148</ele>
        <time>2011-06-04T12:25:28Z</time>
      </trkpt>
      <trkpt lat="48.71944" lon="7.32581">
        <ele>317.922211</ele>
        <time>2011-06-04T12:25:34Z</time>
      </trkpt>
      <trkpt lat="48.71915" lon="7.32572">
        <ele>309.797211</ele>
        <time>2011-06-04T12:25:39Z</time>
      </trkpt>
      <trkpt lat="48.71883" lon="7.3257">
        <ele>300.453461</ele>
        <time>2011-06-04T12:25:44Z</time>
      </trkpt>
      <trkpt lat="48.71855" lon="7.32574">
        <ele>297.273773</ele>
        <time>2011-06-04T12:25:49Z</time>
      </trkpt>
      <trkpt lat="48.71826" lon="7.32593">
        <ele>300.078461</ele>
        <time>2011-06-04T12:25:55Z</time>
      </trkpt>
      <trkpt lat="48.71806" lon="7.3262">
        <ele>299.062836</ele>
        <time>2011-06-04T12:26:00Z</time>
      </trkpt>
      <trkpt lat="48.71781" lon="7.32588">
        <ele>298.992523</ele>
        <time>2011-06-04T12:26:06Z</time>
      </trkpt>
      <trkpt lat="48.71759" lon="7.32563">
        <ele>297.937836</ele>
        <time>2011-06-04T12:26:10Z</time>
      </trkpt>
      <trkpt lat="48.7173" lon="7.32543">
        <ele>298.695648</ele>
        <time>2011-06-04T12:26:14Z</time>
      </trkpt>
      <trkpt lat="48.71701" lon="7.32528">
        <ele>290.687836</ele>
        <time>2011-06-04T12:26:20Z</time>
      </trkpt>
      <trkpt lat="48.71671" lon="7.32513">
        <ele>288.383148</ele>
        <time>2011-06-04T12:26:27Z</time>
      </trkpt>
      <trkpt lat="48.71644" lon="7.32509">
        <ele>287.312836</ele>
        <time>2011-06-04T12:26:31Z</time>
      </trkpt>
      <trkpt lat="48.71613" lon="7.32497">
        <ele>286.586273</ele>
        <time>2011-06-04T12:26:36Z</time>
      </trkpt>
      <trkpt lat="48.71588" lon="7.32511">
        <ele>287.039398</ele>
        <time>2011-06-04T12:28:21Z</time>
      </trkpt>
      <trkpt lat="48.7156" lon="7.325">
        <ele>294.445648</ele>
        <time>2011-06-04T12:34:12Z</time>
      </trkpt>
      <trkpt lat="48.71534" lon="7.32484">
        <ele>297.047211</ele>
        <time>2011-06-04T12:34:18Z</time>
      </trkpt>
      <trkpt lat="48.71507" lon="7.3249">
        <ele>291.500336</ele>
        <time>2011-06-04T12:41:11Z</time>
      </trkpt>
      <trkpt lat="48.71532" lon="7.32466">
        <ele>280.781586</ele>
        <time>2011-06-04T12:41:22Z</time>
      </trkpt>
      <trkpt lat="48.71563" lon="7.32452">
        <ele>276.195648</ele>
        <time>2011-06-04T12:41:27Z</time>
      </trkpt>
      <trkpt lat="48.71589" lon="7.32442">
        <ele>272.844086</ele>
        <time>2011-06-04T12:41:31Z</time>
      </trkpt>
      <trkpt lat="48.71619" lon="7.3244">
        <ele>269.758148</ele>
        <time>2011-06-04T12:41:35Z</time>
      </trkpt>
      <trkpt lat="48.71649" lon="7.32433">
        <ele>266.086273</ele>
        <time>2011-06-04T12:41:40Z</time>
      </trkpt>
      <trkpt lat="48.71681" lon="7.32424">
        <ele>263.633148</ele>
        <time>2011-06-04T12:41:44Z</time>
      </trkpt>
      <trkpt lat="48.71715" lon="7.32415">
        <ele>262.172211</ele>
        <time>2011-06-04T12:41:47Z</time>
      </trkpt>
      <trkpt lat="48.71738" lon="7.32395">
        <ele>257.976898</ele>
        <time>2011-06-04T12:41:51Z</time>
      </trkpt>
      <trkpt lat="48.71766" lon="7.32378">
        <ele>254.785324</ele>
        <time>2011-06-04T12:41:56Z</time>
      </trkpt>
      <trkpt lat="48.71789" lon="7.32354">
        <ele>252.090012</ele>
        <time>2011-06-04T12:42:00Z</time>
      </trkpt>
      <trkpt lat="48.71807" lon="7.32314">
        <ele>251.187668</ele>
        <time>2011-06-04T12:42:06Z</time>
      </trkpt>
      <trkpt lat="48.71827" lon="7.32281">
        <ele>249.761887</ele>
        <time>2011-06-04T12:42:11Z</time>
      </trkpt>
      <trkpt lat="48.71849" lon="7.32251">
        <ele>250.531418</ele>
        <time>2011-06-04T12:42:18Z</time>
      </trkpt>
      <trkpt lat="48.7187" lon="7.32222">
        <ele>250.16423</ele>
        <time>2011-06-04T12:42:25Z</time>
      </trkpt>
      <trkpt lat="48.71892" lon="7.32192">
        <ele>251.086105</ele>
        <time>2011-06-04T12:42:33Z</time>
      </trkpt>
      <trkpt lat="48.71916" lon="7.32172">
        <ele>246.750168</ele>
        <time>2011-06-04T12:42:44Z</time>
      </trkpt>
      <trkpt lat="48.71938" lon="7.32146">
        <ele>247.879074</ele>
        <time>2011-06-04T12:42:52Z</time>
      </trkpt>
      <trkpt lat="48.71958" lon="7.32113">
        <ele>250.492355</ele>
        <time>2011-06-04T12:43:00Z</time>
      </trkpt>
      <trkpt lat="48.71979" lon="7.32086">
        <ele>254.10173</ele>
        <time>2011-06-04T12:43:09Z</time>
      </trkpt>
      <trkpt lat="48.71993" lon="7.32042">
        <ele>255.144699</ele>
        <time>2011-06-04T12:43:21Z</time>
      </trkpt>
      <trkpt lat="48.72019" lon="7.32009">
        <ele>255.328293</ele>
        <time>2011-06-04T12:44:00Z</time>
      </trkpt>
      <trkpt lat="48.72038" lon="7.31975">
        <ele>251.941574</ele>
        <time>2011-06-04T12:44:05Z</time>
      </trkpt>
      <trkpt lat="48.72041" lon="7.31933">
        <ele>249.07048</ele>
        <time>2011-06-04T12:44:09Z</time>
      </trkpt>
      <trkpt lat="48.72034" lon="7.3189">
        <ele>246.191574</ele>
        <time>2011-06-04T12:44:13Z</time>
      </trkpt>
      <trkpt lat="48.72036" lon="7.31844">
        <ele>243.484543</ele>
        <time>2011-06-04T12:44:18Z</time>
      </trkpt>
      <trkpt lat="48.72021" lon="7.318">
        <ele>241.812668</ele>
        <time>2011-06-04T12:44:21Z</time>
      </trkpt>
      <trkpt lat="48.72027" lon="7.31749">
        <ele>238.660324</ele>
        <time>2011-06-04T12:44:25Z</time>
      </trkpt>
      <trkpt lat="48.72027" lon="7.31699">
        <ele>235.500168</ele>
        <time>2011-06-04T12:44:30Z</time>
      </trkpt>
      <trkpt lat="48.72025" lon="7.31651">
        <ele>233.254074</ele>
        <time>2011-06-04T12:44:35Z</time>
      </trkpt>
      <trkpt lat="48.72025" lon="7.31606">
        <ele>230.175949</ele>
        <time>2011-06-04T12:44:40Z</time>
      </trkpt>
      <trkpt lat="48.72023" lon="7.31562">
        <ele>229.457199</ele>
        <time>2011-06-04T12:44:44Z</time>
      </trkpt>
      <trkpt lat="48.72011" lon="7.3152">
        <ele>229.250168</ele>
        <time>2011-06-04T12:44:48Z</time>
      </trkpt>
      <trkpt lat="48.72" lon="7.31476">
        <ele>228.738449</ele>
        <time>2011-06-04T12:44:52Z</time>
      </trkpt>
      <trkpt lat="48.71986" lon="7.31437">
        <ele>227.191574</ele>
        <time>2011-06-04T12:44:56Z</time>
      </trkpt>
      <trkpt lat="48.71961" lon="7.31417">
        <ele>224.472824</ele>
        <time>2011-06-04T12:45:02Z</time>
      </trkpt>
      <trkpt lat="48.71932" lon="7.3143">
        <ele>223.558762</ele>
        <time>2011-06-04T12:45:07Z</time>
      </trkpt>
      <trkpt lat="48.71912" lon="7.31465">
        <ele>222.465012</ele>
        <time>2011-06-04T12:45:11Z</time>
      </trkpt>
      <trkpt lat="48.71888" lon="7.31498">
        <ele>220.129074</ele>
        <time>2011-06-04T12:45:15Z</time>
      </trkpt>
      <trkpt lat="48.71892" lon="7.31453">
        <ele>217.793137</ele>
        <time>2011-06-04T12:45:28Z</time>
      </trkpt>
      <trkpt lat="48.71914" lon="7.31422">
        <ele>217.125168</ele>
        <time>2011-06-04T12:45:33Z</time>
      </trkpt>
      <trkpt lat="48.71936" lon="7.3139">
        <ele>216.187668</ele>
        <time>2011-06-04T12:45:37Z</time>
      </trkpt>
      <trkpt lat="48.71962" lon="7.31376">
        <ele>216.547043</ele>
        <time>2011-06-04T12:45:41Z</time>
      </trkpt>
      <trkpt lat="48.71988" lon="7.31395">
        <ele>216.000168</ele>
        <time>2011-06-04T12:45:45Z</time>
      </trkpt>
      <trkpt lat="48.72007" lon="7.31424">
        <ele>215.011887</ele>
        <time>2011-06-04T12:45:51Z</time>
      </trkpt>
      <trkpt lat="48.72031" lon="7.3144">
        <ele>212.933762</ele>
        <time>2011-06-04T12:46:09Z</time>
      </trkpt>
      <trkpt lat="48.72052" lon="7.31469">
        <ele>206.617355</ele>
        <time>2011-06-04T12:46:24Z</time>
      </trkpt>
      <trkpt lat="48.72069" lon="7.31502">
        <ele>205.187668</ele>
        <time>2011-06-04T12:46:41Z</time>
      </trkpt>
      <trkpt lat="48.721" lon="7.31493">
        <ele>202.35173</ele>
        <time>2011-06-04T12:46:48Z</time>
      </trkpt>
      <trkpt lat="48.72127" lon="7.31515">
        <ele>204.402512</ele>
        <time>2011-06-04T12:46:55Z</time>
      </trkpt>
      <trkpt lat="48.72141" lon="7.3155">
        <ele>204.797043</ele>
        <time>2011-06-04T12:47:01Z</time>
      </trkpt>
      <trkpt lat="48.72157" lon="7.31584">
        <ele>206.332199</ele>
        <time>2011-06-04T12:47:10Z</time>
      </trkpt>
      <trkpt lat="48.72174" lon="7.31617">
        <ele>209.144699</ele>
        <time>2011-06-04T12:47:31Z</time>
      </trkpt>
      <trkpt lat="48.72173" lon="7.31576">
        <ele>204.550949</ele>
        <time>2011-06-04T12:48:55Z</time>
      </trkpt>
      <trkpt lat="48.72168" lon="7.31535">
        <ele>204.78923</ele>
        <time>2011-06-04T12:49:08Z</time>
      </trkpt>
      <trkpt lat="48.72192" lon="7.31547">
        <ele>215.254074</ele>
        <time>2011-06-04T12:50:41Z</time>
      </trkpt>
      <trkpt lat="48.72197" lon="7.31589">
        <ele>222.94548</ele>
        <time>2011-06-04T12:54:37Z</time>
      </trkpt>
      <trkpt lat="48.72203" lon="7.31633">
        <ele>223.058762</ele>
        <time>2011-06-04T12:54:43Z</time>
      </trkpt>
      <trkpt lat="48.72206" lon="7.31675">
        <ele>222.390793</ele>
        <time>2011-06-04T12:54:48Z</time>
      </trkpt>
      <trkpt lat="48.72208" lon="7.31717">
        <ele>220.765793</ele>
        <time>2011-06-04T12:54:53Z</time>
      </trkpt>
      <trkpt lat="48.72214" lon="7.31759">
        <ele>218.53923</ele>
        <time>2011-06-04T12:54:58Z</time>
      </trkpt>
      <trkpt lat="48.72224" lon="7.31804">
        <ele>217.574387</ele>
        <time>2011-06-04T12:55:04Z</time>
      </trkpt>
      <trkpt lat="48.72221" lon="7.31848">
        <ele>216.800949</ele>
        <time>2011-06-04T12:55:10Z</time>
      </trkpt>
      <trkpt lat="48.72226" lon="7.31889">
        <ele>214.394699</ele>
        <time>2011-06-04T12:55:16Z</time>
      </trkpt>
      <trkpt lat="48.72235" lon="7.31929">
        <ele>213.375168</ele>
        <time>2011-06-04T12:55:23Z</time>
      </trkpt>
      <trkpt lat="48.72256" lon="7.31957">
        <ele>212.429855</ele>
        <time>2011-06-04T12:55:29Z</time>
      </trkpt>
      <trkpt lat="48.72275" lon="7.31989">
        <ele>211.488449</ele>
        <time>2011-06-04T12:55:35Z</time>
      </trkpt>
      <trkpt lat="48.7229" lon="7.32029">
        <ele>211.359543</ele>
        <time>2011-06-04T12:55:42Z</time>
      </trkpt>
      <trkpt lat="48.72312" lon="7.32064">
        <ele>211.168137</ele>
        <time>2011-06-04T12:55:49Z</time>
      </trkpt>
      <trkpt lat="48.72335" lon="7.3209">
        <ele>211.304855</ele>
        <time>2011-06-04T12:55:55Z</time>
      </trkpt>
      <trkpt lat="48.72356" lon="7.32126">
        <ele>211.535324</ele>
        <time>2011-06-04T12:56:01Z</time>
      </trkpt>
      <trkpt lat="48.72379" lon="7.32162">
        <ele>211.925949</ele>
        <time>2011-06-04T12:56:07Z</time>
      </trkpt>
      <trkpt lat="48.724" lon="7.32199">
        <ele>211.742355</ele>
        <time>2011-06-04T12:56:13Z</time>
      </trkpt>
      <trkpt lat="48.72418" lon="7.32234">
        <ele>211.629074</ele>
        <time>2011-06-04T12:56:18Z</time>
      </trkpt>
      <trkpt lat="48.72438" lon="7.32262">
        <ele>211.398605</ele>
        <time>2011-06-04T12:56:23Z</time>
      </trkpt>
      <trkpt lat="48.72458" lon="7.32293">
        <ele>211.062668</ele>
        <time>2011-06-04T12:56:29Z</time>
      </trkpt>
      <trkpt lat="48.72481" lon="7.32318">
        <ele>211.343918</ele>
        <time>2011-06-04T12:56:35Z</time>
      </trkpt>
      <trkpt lat="48.72509" lon="7.32341">
        <ele>212.441574</ele>
        <time>2011-06-04T12:56:41Z</time>
      </trkpt>
      <trkpt lat="48.72532" lon="7.32371">
        <ele>212.773605</ele>
        <time>2011-06-04T12:56:47Z</time>
      </trkpt>
      <trkpt lat="48.72556" lon="7.32396">
        <ele>213.277512</ele>
        <time>2011-06-04T12:56:52Z</time>
      </trkpt>
      <trkpt lat="48.72578" lon="7.32428">
        <ele>213.890793</ele>
        <time>2011-06-04T12:56:57Z</time>
      </trkpt>
      <trkpt lat="48.72598" lon="7.32461">
        <ele>214.394699</ele>
        <time>2011-06-04T12:57:02Z</time>
      </trkpt>
      <trkpt lat="48.72617" lon="7.32491">
        <ele>214.675949</ele>
        <time>2011-06-04T12:57:08Z</time>
      </trkpt>
      <trkpt lat="48.72622" lon="7.32447">
        <ele>220.023605</ele>
        <time>2011-06-04T12:57:38Z</time>
      </trkpt>
      <trkpt lat="48.72633" lon="7.3241">
        <ele>224.367355</ele>
        <time>2011-06-04T12:57:57Z</time>
      </trkpt>
      <trkpt lat="48.72623" lon="7.3237">
        <ele>229.269699</ele>
        <time>2011-06-04T12:58:19Z</time>
      </trkpt>
      <trkpt lat="48.72602" lon="7.32338">
        <ele>230.668137</ele>
        <time>2011-06-04T12:58:36Z</time>
      </trkpt>
      <trkpt lat="48.72582" lon="7.32302">
        <ele>230.968918</ele>
        <time>2011-06-04T12:58:50Z</time>
      </trkpt>
      <trkpt lat="48.72566" lon="7.32267">
        <ele>231.78923</ele>
        <time>2011-06-04T12:59:03Z</time>
      </trkpt>
      <trkpt lat="48.72547" lon="7.32235">
        <ele>232.152512</ele>
        <time>2011-06-04T12:59:13Z</time>
      </trkpt>
      <trkpt lat="48.72524" lon="7.32209">
        <ele>232.218918</ele>
        <time>2011-06-04T12:59:23Z</time>
      </trkpt>
      <trkpt lat="48.72508" lon="7.32174">
        <ele>232.183762</ele>
        <time>2011-06-04T12:59:36Z</time>
      </trkpt>
      <trkpt lat="48.72485" lon="7.32144">
        <ele>234.254074</ele>
        <time>2011-06-04T12:59:41Z</time>
      </trkpt>
      <trkpt lat="48.72465" lon="7.32114">
        <ele>232.60173</ele>
        <time>2011-06-04T12:59:46Z</time>
      </trkpt>
      <trkpt lat="48.72437" lon="7.32095">
        <ele>226.441574</ele>
        <time>2011-06-04T13:00:02Z</time>
      </trkpt>
      <trkpt lat="48.72464" lon="7.32081">
        <ele>230.41423</ele>
        <time>2011-06-04T13:00:28Z</time>
      </trkpt>
      <trkpt lat="48.72492" lon="7.32077">
        <ele>236.379074</ele>
        <time>2011-06-04T13:00:38Z</time>
      </trkpt>
      <trkpt lat="48.7252" lon="7.32073">
        <ele>244.144699</ele>
        <time>2011-06-04T13:00:50Z</time>
      </trkpt>
      <trkpt lat="48.7255" lon="7.32083">
        <ele>253.390793</ele>
        <time>2011-06-04T13:00:57Z</time>
      </trkpt>
      <trkpt lat="48.72577" lon="7.32101">
        <ele>259.961273</ele>
        <time>2011-06-04T13:01:03Z</time>
      </trkpt>
      <trkpt lat="48.726" lon="7.32126">
        <ele>264.445648</ele>
        <time>2011-06-04T13:01:12Z</time>
      </trkpt>
      <trkpt lat="48.72614" lon="7.32099">
        <ele>280.945648</ele>
        <time>2011-06-04T13:01:36Z</time>
      </trkpt>
      <trkpt lat="48.726" lon="7.32061">
        <ele>288.133148</ele>
        <time>2011-06-04T13:01:50Z</time>
      </trkpt>
      <trkpt lat="48.72574" lon="7.32029">
        <ele>293.570648</ele>
        <time>2011-06-04T13:02:04Z</time>
      </trkpt>
      <trkpt lat="48.72551" lon="7.32008">
        <ele>297.758148</ele>
        <time>2011-06-04T13:02:16Z</time>
      </trkpt>
      <trkpt lat="48.72529" lon="7.31985">
        <ele>301.148773</ele>
        <time>2011-06-04T13:02:30Z</time>
      </trkpt>
      <trkpt lat="48.72504" lon="7.3197">
        <ele>305.070648</ele>
        <time>2011-06-04T13:02:41Z</time>
      </trkpt>
      <trkpt lat="48.72479" lon="7.31954">
        <ele>307.180023</ele>
        <time>2011-06-04T13:02:50Z</time>
      </trkpt>
      <trkpt lat="48.72455" lon="7.3193">
        <ele>310.437836</ele>
        <time>2011-06-04T13:03:01Z</time>
      </trkpt>
      <trkpt lat="48.72439" lon="7.31893">
        <ele>313.008148</ele>
        <time>2011-06-04T13:03:15Z</time>
      </trkpt>
      <trkpt lat="48.72424" lon="7.31851">
        <ele>311.125336</ele>
        <time>2011-06-04T13:03:24Z</time>
      </trkpt>
      <trkpt lat="48.72409" lon="7.31816">
        <ele>307.492523</ele>
        <time>2011-06-04T13:03:31Z</time>
      </trkpt>
      <trkpt lat="48.72392" lon="7.31784">
        <ele>308.430023</ele>
        <time>2011-06-04T13:03:57Z</time>
      </trkpt>
      <trkpt lat="48.72384" lon="7.31745">
        <ele>315.953461</ele>
        <time>2011-06-04T13:11:57Z</time>
      </trkpt>
      <trkpt lat="48.724" lon="7.31714">
        <ele>326.765961</ele>
        <time>2011-06-04T13:12:12Z</time>
      </trkpt>
      <trkpt lat="48.72419" lon="7.31684">
        <ele>337.211273</ele>
        <time>2011-06-04T13:12:26Z</time>
      </trkpt>
      <trkpt lat="48.72435" lon="7.3165">
        <ele>346.461273</ele>
        <time>2011-06-04T13:12:38Z</time>
      </trkpt>
      <trkpt lat="48.72449" lon="7.31615">
        <ele>353.820648</ele>
        <time>2011-06-04T13:12:48Z</time>
      </trkpt>
      <trkpt lat="48.72452" lon="7.31576">
        <ele>361.906586</ele>
        <time>2011-06-04T13:12:59Z</time>
      </trkpt>
      <trkpt lat="48.72455" lon="7.31532">
        <ele>369.500336</ele>
        <time>2011-06-04T13:13:09Z</time>
      </trkpt>
      <trkpt lat="48.72469" lon="7.31494">
        <ele>375.148773</ele>
        <time>2011-06-04T13:13:16Z</time>
      </trkpt>
      <trkpt lat="48.72421" lon="7.31439">
        <ele>375.812836</ele>
        <time>2011-06-04T13:13:18Z</time>
      </trkpt>
      <trkpt lat="48.72396" lon="7.31397">
        <ele>376.758148</ele>
        <time>2011-06-04T13:13:21Z</time>
      </trkpt>
      <trkpt lat="48.72417" lon="7.31292">
        <ele>376.578461</ele>
        <time>2011-06-04T13:13:22Z</time>
      </trkpt>
      <trkpt lat="48.72371" lon="7.31248">
        <ele>376.258148</ele>
        <time>2011-06-04T13:13:24Z</time>
      </trkpt>
      <trkpt lat="48.72348" lon="7.312">
        <ele>375.258148</ele>
        <time>2011-06-04T13:13:26Z</time>
      </trkpt>
      <trkpt lat="48.72338" lon="7.31162">
        <ele>372.922211</ele>
        <time>2011-06-04T13:13:29Z</time>
      </trkpt>
      <trkpt lat="48.72339" lon="7.31121">
        <ele>370.555023</ele>
        <time>2011-06-04T13:13:33Z</time>
      </trkpt>
      <trkpt lat="48.72347" lon="7.31076">
        <ele>367.640961</ele>
        <time>2011-06-04T13:13:38Z</time>
      </trkpt>
      <trkpt lat="48.72375" lon="7.31064">
        <ele>364.508148</ele>
        <time>2011-06-04T13:13:45Z</time>
      </trkpt>
      <trkpt lat="48.72404" lon="7.31076">
        <ele>362.914398</ele>
        <time>2011-06-04T13:13:51Z</time>
      </trkpt>
      <trkpt lat="48.72432" lon="7.31092">
        <ele>361.539398</ele>
        <time>2011-06-04T13:13:57Z</time>
      </trkpt>
      <trkpt lat="48.72459" lon="7.31112">
        <ele>359.344086</ele>
        <time>2011-06-04T13:14:03Z</time>
      </trkpt>
      <trkpt lat="48.72485" lon="7.31134">
        <ele>356.867523</ele>
        <time>2011-06-04T13:14:08Z</time>
      </trkpt>
      <trkpt lat="48.72512" lon="7.3116">
        <ele>355.187836</ele>
        <time>2011-06-04T13:14:13Z</time>
      </trkpt>
      <trkpt lat="48.72535" lon="7.31182">
        <ele>353.390961</ele>
        <time>2011-06-04T13:14:17Z</time>
      </trkpt>
      <trkpt lat="48.72561" lon="7.31209">
        <ele>349.008148</ele>
        <time>2011-06-04T13:14:22Z</time>
      </trkpt>
      <trkpt lat="48.72584" lon="7.31232">
        <ele>344.750336</ele>
        <time>2011-06-04T13:14:27Z</time>
      </trkpt>
      <trkpt lat="48.72606" lon="7.31255">
        <ele>340.320648</ele>
        <time>2011-06-04T13:14:32Z</time>
      </trkpt>
      <trkpt lat="48.72633" lon="7.31281">
        <ele>334.890961</ele>
        <time>2011-06-04T13:14:38Z</time>
      </trkpt>
      <trkpt lat="48.72658" lon="7.313">
        <ele>330.750336</ele>
        <time>2011-06-04T13:14:43Z</time>
      </trkpt>
      <trkpt lat="48.72685" lon="7.31322">
        <ele>326.594086</ele>
        <time>2011-06-04T13:14:49Z</time>
      </trkpt>
      <trkpt lat="48.72711" lon="7.31344">
        <ele>321.211273</ele>
        <time>2011-06-04T13:14:55Z</time>
      </trkpt>
      <trkpt lat="48.72736" lon="7.31362">
        <ele>317.187836</ele>
        <time>2011-06-04T13:15:01Z</time>
      </trkpt>
      <trkpt lat="48.72764" lon="7.31371">
        <ele>315.515961</ele>
        <time>2011-06-04T13:15:08Z</time>
      </trkpt>
      <trkpt lat="48.7277" lon="7.31328">
        <ele>315.312836</ele>
        <time>2011-06-04T13:15:19Z</time>
      </trkpt>
      <trkpt lat="48.72764" lon="7.31283">
        <ele>318.062836</ele>
        <time>2011-06-04T13:15:28Z</time>
      </trkpt>
      <trkpt lat="48.72756" lon="7.3124">
        <ele>320.211273</ele>
        <time>2011-06-04T13:15:34Z</time>
      </trkpt>
      <trkpt lat="48.72744" lon="7.31199">
        <ele>322.453461</ele>
        <time>2011-06-04T13:15:40Z</time>
      </trkpt>
      <trkpt lat="48.72728" lon="7.31157">
        <ele>323.289398</ele>
        <time>2011-06-04T13:15:44Z</time>
      </trkpt>
      <trkpt lat="48.72704" lon="7.31112">
        <ele>324.187836</ele>
        <time>2011-06-04T13:15:48Z</time>
      </trkpt>
      <trkpt lat="48.72687" lon="7.31076">
        <ele>324.375336</ele>
        <time>2011-06-04T13:15:52Z</time>
      </trkpt>
      <trkpt lat="48.72673" lon="7.31039">
        <ele>324.703461</ele>
        <time>2011-06-04T13:15:57Z</time>
      </trkpt>
      <trkpt lat="48.72661" lon="7.31">
        <ele>325.445648</ele>
        <time>2011-06-04T13:16:02Z</time>
      </trkpt>
      <trkpt lat="48.72649" lon="7.3096">
        <ele>327.336273</ele>
        <time>2011-06-04T13:16:08Z</time>
      </trkpt>
      <trkpt lat="48.72636" lon="7.30924">
        <ele>330.687836</ele>
        <time>2011-06-04T13:16:15Z</time>
      </trkpt>
      <trkpt lat="48.72616" lon="7.30889">
        <ele>333.711273</ele>
        <time>2011-06-04T13:16:22Z</time>
      </trkpt>
      <trkpt lat="48.72597" lon="7.30858">
        <ele>334.758148</ele>
        <time>2011-06-04T13:16:27Z</time>
      </trkpt>
      <trkpt lat="48.72584" lon="7.30821">
        <ele>335.187836</ele>
        <time>2011-06-04T13:16:33Z</time>
      </trkpt>
      <trkpt lat="48.72578" lon="7.30777">
        <ele>333.836273</ele>
        <time>2011-06-04T13:16:38Z</time>
      </trkpt>
      <trkpt lat="48.72579" lon="7.30732">
        <ele>333.125336</ele>
        <time>2011-06-04T13:16:43Z</time>
      </trkpt>
      <trkpt lat="48.72582" lon="7.30687">
        <ele>331.305023</ele>
        <time>2011-06-04T13:16:49Z</time>
      </trkpt>
      <trkpt lat="48.72593" lon="7.30643">
        <ele>328.070648</ele>
        <time>2011-06-04T13:16:55Z</time>
      </trkpt>
      <trkpt lat="48.72607" lon="7.30602">
        <ele>324.976898</ele>
        <time>2011-06-04T13:17:01Z</time>
      </trkpt>
      <trkpt lat="48.7262" lon="7.30565">
        <ele>322.750336</ele>
        <time>2011-06-04T13:17:07Z</time>
      </trkpt>
      <trkpt lat="48.72635" lon="7.3053">
        <ele>320.109711</ele>
        <time>2011-06-04T13:17:15Z</time>
      </trkpt>
      <trkpt lat="48.72654" lon="7.30499">
        <ele>318.320648</ele>
        <time>2011-06-04T13:17:22Z</time>
      </trkpt>
      <trkpt lat="48.72676" lon="7.30472">
        <ele>318.531586</ele>
        <time>2011-06-04T13:17:28Z</time>
      </trkpt>
      <trkpt lat="48.72704" lon="7.30461">
        <ele>318.062836</ele>
        <time>2011-06-04T13:17:34Z</time>
      </trkpt>
      <trkpt lat="48.72733" lon="7.30468">
        <ele>318.000336</ele>
        <time>2011-06-04T13:17:40Z</time>
      </trkpt>
      <trkpt lat="48.72762" lon="7.3049">
        <ele>317.719086</ele>
        <time>2011-06-04T13:17:46Z</time>
      </trkpt>
      <trkpt lat="48.72788" lon="7.30515">
        <ele>317.297211</ele>
        <time>2011-06-04T13:17:52Z</time>
      </trkpt>
      <trkpt lat="48.7281" lon="7.30544">
        <ele>317.406586</ele>
        <time>2011-06-04T13:17:58Z</time>
      </trkpt>
      <trkpt lat="48.72834" lon="7.30574">
        <ele>316.742523</ele>
        <time>2011-06-04T13:18:04Z</time>
      </trkpt>
      <trkpt lat="48.72854" lon="7.30602">
        <ele>316.414398</ele>
        <time>2011-06-04T13:18:09Z</time>
      </trkpt>
      <trkpt lat="48.72873" lon="7.30635">
        <ele>316.515961</ele>
        <time>2011-06-04T13:18:14Z</time>
      </trkpt>
      <trkpt lat="48.72892" lon="7.30666">
        <ele>316.281586</ele>
        <time>2011-06-04T13:18:19Z</time>
      </trkpt>
      <trkpt lat="48.7291" lon="7.30697">
        <ele>315.367523</ele>
        <time>2011-06-04T13:18:25Z</time>
      </trkpt>
      <trkpt lat="48.72931" lon="7.30727">
        <ele>314.523773</ele>
        <time>2011-06-04T13:18:34Z</time>
      </trkpt>
      <trkpt lat="48.72955" lon="7.30751">
        <ele>314.812836</ele>
        <time>2011-06-04T13:19:11Z</time>
      </trkpt>
      <trkpt lat="48.72958" lon="7.30791">
        <ele>318.867523</ele>
        <time>2011-06-04T13:23:06Z</time>
      </trkpt>
      <trkpt lat="48.72973" lon="7.30826">
        <ele>324.164398</ele>
        <time>2011-06-04T13:23:29Z</time>
      </trkpt>
      <trkpt lat="48.72986" lon="7.30861">
        <ele>329.555023</ele>
        <time>2011-06-04T13:24:40Z</time>
      </trkpt>
      <trkpt lat="48.73006" lon="7.30888">
        <ele>335.117523</ele>
        <time>2011-06-04T13:25:05Z</time>
      </trkpt>
      <trkpt lat="48.73021" lon="7.30922">
        <ele>337.156586</ele>
        <time>2011-06-04T13:26:09Z</time>
      </trkpt>
      <trkpt lat="48.73043" lon="7.30948">
        <ele>341.039398</ele>
        <time>2011-06-04T13:26:31Z</time>
      </trkpt>
      <trkpt lat="48.73064" lon="7.30974">
        <ele>347.203461</ele>
        <time>2011-06-04T13:26:55Z</time>
      </trkpt>
      <trkpt lat="48.7309" lon="7.30992">
        <ele>351.094086</ele>
        <time>2011-06-04T13:27:19Z</time>
      </trkpt>
      <trkpt lat="48.73114" lon="7.3101">
        <ele>353.640961</ele>
        <time>2011-06-04T13:27:43Z</time>
      </trkpt>
      <trkpt lat="48.73138" lon="7.3103">
        <ele>361.047211</ele>
        <time>2011-06-04T13:28:11Z</time>
      </trkpt>
      <trkpt lat="48.73164" lon="7.31046">
        <ele>364.398773</ele>
        <time>2011-06-04T13:29:32Z</time>
      </trkpt>
      <trkpt lat="48.73187" lon="7.31065">
        <ele>372.125336</ele>
        <time>2011-06-04T13:31:57Z</time>
      </trkpt>
      <trkpt lat="48.73214" lon="7.31071">
        <ele>376.836273</ele>
        <time>2011-06-04T13:32:19Z</time>
      </trkpt>
      <trkpt lat="48.73236" lon="7.31092">
        <ele>387.125336</ele>
        <time>2011-06-04T13:37:56Z</time>
      </trkpt>
      <trkpt lat="48.73261" lon="7.31099">
        <ele>396.617523</ele>
        <time>2011-06-04T13:38:18Z</time>
      </trkpt>
      <trkpt lat="48.73287" lon="7.31093">
        <ele>406.055023</ele>
        <time>2011-06-04T13:38:41Z</time>
      </trkpt>
      <trkpt lat="48.73309" lon="7.31074">
        <ele>417.867523</ele>
        <time>2011-06-04T13:39:00Z</time>
      </trkpt>
      <trkpt lat="48.73335" lon="7.31059">
        <ele>422.180023</ele>
        <time>2011-06-04T13:39:20Z</time>
      </trkpt>
      <trkpt lat="48.7336" lon="7.31076">
        <ele>417.820648</ele>
        <time>2011-06-04T13:39:40Z</time>
      </trkpt>
      <trkpt lat="48.73381" lon="7.31104">
        <ele>420.039398</ele>
        <time>2011-06-04T13:41:03Z</time>
      </trkpt>
      <trkpt lat="48.734" lon="7.31135">
        <ele>424.273773</ele>
        <time>2011-06-04T13:41:28Z</time>
      </trkpt>
      <trkpt lat="48.73415" lon="7.31168">
        <ele>429.187836</ele>
        <time>2011-06-04T13:42:21Z</time>
      </trkpt>
      <trkpt lat="48.73438" lon="7.31193">
        <ele>433.687836</ele>
        <time>2011-06-04T13:42:49Z</time>
      </trkpt>
      <trkpt lat="48.73459" lon="7.31219">
        <ele>433.055023</ele>
        <time>2011-06-04T13:43:09Z</time>
      </trkpt>
      <trkpt lat="48.73484" lon="7.31237">
        <ele>435.328461</ele>
        <time>2011-06-04T13:43:27Z</time>
      </trkpt>
      <trkpt lat="48.73509" lon="7.31217">
        <ele>435.547211</ele>
        <time>2011-06-04T13:46:14Z</time>
      </trkpt>
      <trkpt lat="48.7353" lon="7.3119">
        <ele>429.922211</ele>
        <time>2011-06-04T13:48:00Z</time>
      </trkpt>
      <trkpt lat="48.73548" lon="7.31155">
        <ele>430.414398</ele>
        <time>2011-06-04T13:48:09Z</time>
      </trkpt>
      <trkpt lat="48.73565" lon="7.31116">
        <ele>430.140961</ele>
        <time>2011-06-04T13:48:18Z</time>
      </trkpt>
      <trkpt lat="48.73579" lon="7.3108">
        <ele>430.867523</ele>
        <time>2011-06-04T13:48:25Z</time>
      </trkpt>
      <trkpt lat="48.73593" lon="7.31041">
        <ele>433.289398</ele>
        <time>2011-06-04T13:48:33Z</time>
      </trkpt>
      <trkpt lat="48.73609" lon="7.31005">
        <ele>436.601898</ele>
        <time>2011-06-04T13:48:42Z</time>
      </trkpt>
      <trkpt lat="48.73623" lon="7.30969">
        <ele>439.008148</ele>
        <time>2011-06-04T13:48:50Z</time>
      </trkpt>
      <trkpt lat="48.73636" lon="7.31005">
        <ele>444.890961</ele>
        <time>2011-06-04T13:50:26Z</time>
      </trkpt>
      <trkpt lat="48.73656" lon="7.31038">
        <ele>445.562836</ele>
        <time>2011-06-04T13:50:34Z</time>
      </trkpt>
      <trkpt lat="48.73673" lon="7.31071">
        <ele>447.422211</ele>
        <time>2011-06-04T13:50:43Z</time>
      </trkpt>
      <trkpt lat="48.73695" lon="7.311">
        <ele>445.922211</ele>
        <time>2011-06-04T13:50:50Z</time>
      </trkpt>
      <trkpt lat="48.73716" lon="7.31126">
        <ele>441.156586</ele>
        <time>2011-06-04T13:50:57Z</time>
      </trkpt>
      <trkpt lat="48.73738" lon="7.31154">
        <ele>442.172211</ele>
        <time>2011-06-04T13:51:06Z</time>
      </trkpt>
      <trkpt lat="48.73768" lon="7.31163">
        <ele>440.945648</ele>
        <time>2011-06-04T13:51:17Z</time>
      </trkpt>
      <trkpt lat="48.73798" lon="7.31162">
        <ele>440.203461</ele>
        <time>2011-06-04T13:51:23Z</time>
      </trkpt>
      <trkpt lat="48.73826" lon="7.31162">
        <ele>437.422211</ele>
        <time>2011-06-04T13:51:27Z</time>
      </trkpt>
      <trkpt lat="48.73854" lon="7.31182">
        <ele>433.000336</ele>
        <time>2011-06-04T13:51:32Z</time>
      </trkpt>
      <trkpt lat="48.73863" lon="7.31221">
        <ele>429.789398</ele>
        <time>2011-06-04T13:51:37Z</time>
      </trkpt>
      <trkpt lat="48.73886" lon="7.31244">
        <ele>423.226898</ele>
        <time>2011-06-04T13:51:44Z</time>
      </trkpt>
      <trkpt lat="48.73912" lon="7.31263">
        <ele>417.594086</ele>
        <time>2011-06-04T13:51:48Z</time>
      </trkpt>
      <trkpt lat="48.73933" lon="7.31299">
        <ele>415.047211</ele>
        <time>2011-06-04T13:51:53Z</time>
      </trkpt>
      <trkpt lat="48.73949" lon="7.31344">
        <ele>411.828461</ele>
        <time>2011-06-04T13:51:58Z</time>
      </trkpt>
      <trkpt lat="48.73964" lon="7.31382">
        <ele>408.648773</ele>
        <time>2011-06-04T13:52:02Z</time>
      </trkpt>
      <trkpt lat="48.73972" lon="7.31428">
        <ele>405.914398</ele>
        <time>2011-06-04T13:52:06Z</time>
      </trkpt>
      <trkpt lat="48.73999" lon="7.31421">
        <ele>401.344086</ele>
        <time>2011-06-04T13:52:15Z</time>
      </trkpt>
      <trkpt lat="48.74012" lon="7.31376">
        <ele>397.039398</ele>
        <time>2011-06-04T13:52:20Z</time>
      </trkpt>
      <trkpt lat="48.74039" lon="7.31397">
        <ele>390.945648</ele>
        <time>2011-06-04T13:52:33Z</time>
      </trkpt>
      <trkpt lat="48.74055" lon="7.31432">
        <ele>388.555023</ele>
        <time>2011-06-04T13:52:37Z</time>
      </trkpt>
      <trkpt lat="48.74083" lon="7.31414">
        <ele>383.945648</ele>
        <time>2011-06-04T13:52:46Z</time>
      </trkpt>
      <trkpt lat="48.7409" lon="7.31374">
        <ele>383.398773</ele>
        <time>2011-06-04T13:53:24Z</time>
      </trkpt>
      <trkpt lat="48.74093" lon="7.31328">
        <ele>382.812836</ele>
        <time>2011-06-04T13:53:31Z</time>
      </trkpt>
      <trkpt lat="48.74093" lon="7.31285">
        <ele>383.914398</ele>
        <time>2011-06-04T13:53:37Z</time>
      </trkpt>
      <trkpt lat="48.74115" lon="7.31251">
        <ele>384.961273</ele>
        <time>2011-06-04T13:53:44Z</time>
      </trkpt>
      <trkpt lat="48.74143" lon="7.31239">
        <ele>388.031586</ele>
        <time>2011-06-04T13:53:52Z</time>
      </trkpt>
      <trkpt lat="48.74175" lon="7.31249">
        <ele>387.398773</ele>
        <time>2011-06-04T13:54:01Z</time>
      </trkpt>
      <trkpt lat="48.74201" lon="7.31236">
        <ele>384.625336</ele>
        <time>2011-06-04T13:54:06Z</time>
      </trkpt>
      <trkpt lat="48.74223" lon="7.31211">
        <ele>380.937836</ele>
        <time>2011-06-04T13:54:10Z</time>
      </trkpt>
      <trkpt lat="48.74244" lon="7.31183">
        <ele>378.453461</ele>
        <time>2011-06-04T13:54:17Z</time>
      </trkpt>
      <trkpt lat="48.74257" lon="7.31146">
        <ele>383.219086</ele>
        <time>2011-06-04T13:54:42Z</time>
      </trkpt>
      <trkpt lat="48.74271" lon="7.31108">
        <ele>384.344086</ele>
        <time>2011-06-04T13:54:54Z</time>
      </trkpt>
      <trkpt lat="48.74285" lon="7.31069">
        <ele>383.328461</ele>
        <time>2011-06-04T13:55:06Z</time>
      </trkpt>
      <trkpt lat="48.74294" lon="7.31029">
        <ele>387.805023</ele>
        <time>2011-06-04T13:55:18Z</time>
      </trkpt>
      <trkpt lat="48.7431" lon="7.30992">
        <ele>388.547211</ele>
        <time>2011-06-04T13:55:31Z</time>
      </trkpt>
      <trkpt lat="48.74327" lon="7.30958">
        <ele>389.305023</ele>
        <time>2011-06-04T13:55:42Z</time>
      </trkpt>
      <trkpt lat="48.74344" lon="7.30923">
        <ele>393.211273</ele>
        <time>2011-06-04T13:55:53Z</time>
      </trkpt>
      <trkpt lat="48.74357" lon="7.30886">
        <ele>397.953461</ele>
        <time>2011-06-04T13:56:03Z</time>
      </trkpt>
      <trkpt lat="48.74374" lon="7.3085">
        <ele>400.359711</ele>
        <time>2011-06-04T13:56:15Z</time>
      </trkpt>
      <trkpt lat="48.74394" lon="7.3082">
        <ele>404.726898</ele>
        <time>2011-06-04T13:56:26Z</time>
      </trkpt>
      <trkpt lat="48.74406" lon="7.30782">
        <ele>410.000336</ele>
        <time>2011-06-04T13:56:37Z</time>
      </trkpt>
      <trkpt lat="48.74411" lon="7.30739">
        <ele>413.015961</ele>
        <time>2011-06-04T13:56:48Z</time>
      </trkpt>
      <trkpt lat="48.74412" lon="7.30697">
        <ele>413.812836</ele>
        <time>2011-06-04T13:56:59Z</time>
      </trkpt>
      <trkpt lat="48.74411" lon="7.30654">
        <ele>417.156586</ele>
        <time>2011-06-04T13:57:09Z</time>
      </trkpt>
      <trkpt lat="48.74412" lon="7.30613">
        <ele>416.805023</ele>
        <time>2011-06-04T13:57:19Z</time>
      </trkpt>
      <trkpt lat="48.74414" lon="7.30571">
        <ele>415.758148</ele>
        <time>2011-06-04T13:57:30Z</time>
      </trkpt>
      <trkpt lat="48.74413" lon="7.30533">
        <ele>425.578461</ele>
        <time>2011-06-04T13:57:39Z</time>
      </trkpt>
      <trkpt lat="48.74417" lon="7.30493">
        <ele>430.625336</ele>
        <time>2011-06-04T13:57:49Z</time>
      </trkpt>
      <trkpt lat="48.74429" lon="7.30454">
        <ele>430.664398</ele>
        <time>2011-06-04T13:57:58Z</time>
      </trkpt>
      <trkpt lat="48.74448" lon="7.30422">
        <ele>432.492523</ele>
        <time>2011-06-04T13:58:10Z</time>
      </trkpt>
      <trkpt lat="48.74472" lon="7.30406">
        <ele>431.047211</ele>
        <time>2011-06-04T13:59:12Z</time>
      </trkpt>
      <trkpt lat="48.74502" lon="7.30409">
        <ele>431.953461</ele>
        <time>2011-06-04T13:59:24Z</time>
      </trkpt>
      <trkpt lat="48.7453" lon="7.30424">
        <ele>432.383148</ele>
        <time>2011-06-04T13:59:33Z</time>
      </trkpt>
      <trkpt lat="48.74558" lon="7.30437">
        <ele>429.726898</ele>
        <time>2011-06-04T13:59:42Z</time>
      </trkpt>
      <trkpt lat="48.74583" lon="7.30461">
        <ele>424.922211</ele>
        <time>2011-06-04T13:59:50Z</time>
      </trkpt>
      <trkpt lat="48.74608" lon="7.30483">
        <ele>420.734711</ele>
        <time>2011-06-04T14:00:00Z</time>
      </trkpt>
      <trkpt lat="48.74633" lon="7.30506">
        <ele>421.367523</ele>
        <time>2011-06-04T14:00:08Z</time>
      </trkpt>
      <trkpt lat="48.74658" lon="7.30526">
        <ele>422.101898</ele>
        <time>2011-06-04T14:00:14Z</time>
      </trkpt>
      <trkpt lat="48.74685" lon="7.30548">
        <ele>424.234711</ele>
        <time>2011-06-04T14:00:23Z</time>
      </trkpt>
      <trkpt lat="48.74713" lon="7.30562">
        <ele>422.508148</ele>
        <time>2011-06-04T14:00:31Z</time>
      </trkpt>
      <trkpt lat="48.74743" lon="7.30565">
        <ele>422.765961</ele>
        <time>2011-06-04T14:00:38Z</time>
      </trkpt>
      <trkpt lat="48.74773" lon="7.30571">
        <ele>419.820648</ele>
        <time>2011-06-04T14:00:44Z</time>
      </trkpt>
      <trkpt lat="48.74801" lon="7.30574">
        <ele>419.617523</ele>
        <time>2011-06-04T14:00:49Z</time>
      </trkpt>
      <trkpt lat="48.7483" lon="7.3058">
        <ele>418.195648</ele>
        <time>2011-06-04T14:00:54Z</time>
      </trkpt>
      <trkpt lat="48.7486" lon="7.30585">
        <ele>416.984711</ele>
        <time>2011-06-04T14:00:59Z</time>
      </trkpt>
      <trkpt lat="48.7489" lon="7.30592">
        <ele>416.734711</ele>
        <time>2011-06-04T14:01:04Z</time>
      </trkpt>
      <trkpt lat="48.74921" lon="7.30597">
        <ele>416.672211</ele>
        <time>2011-06-04T14:01:09Z</time>
      </trkpt>
      <trkpt lat="48.74949" lon="7.30604">
        <ele>416.765961</ele>
        <time>2011-06-04T14:01:14Z</time>
      </trkpt>
      <trkpt lat="48.74978" lon="7.30609">
        <ele>419.297211</ele>
        <time>2011-06-04T14:01:20Z</time>
      </trkpt>
      <trkpt lat="48.75008" lon="7.30617">
        <ele>421.648773</ele>
        <time>2011-06-04T14:01:26Z</time>
      </trkpt>
      <trkpt lat="48.75036" lon="7.30628">
        <ele>428.305023</ele>
        <time>2011-06-04T14:01:32Z</time>
      </trkpt>
      <trkpt lat="48.75063" lon="7.30641">
        <ele>432.226898</ele>
        <time>2011-06-04T14:01:39Z</time>
      </trkpt>
      <trkpt lat="48.75089" lon="7.30654">
        <ele>435.039398</ele>
        <time>2011-06-04T14:01:45Z</time>
      </trkpt>
      <trkpt lat="48.75115" lon="7.30667">
        <ele>436.914398</ele>
        <time>2011-06-04T14:01:52Z</time>
      </trkpt>
      <trkpt lat="48.75141" lon="7.30683">
        <ele>441.125336</ele>
        <time>2011-06-04T14:02:01Z</time>
      </trkpt>
      <trkpt lat="48.75168" lon="7.30698">
        <ele>445.406586</ele>
        <time>2011-06-04T14:02:11Z</time>
      </trkpt>
      <trkpt lat="48.75198" lon="7.30711">
        <ele>446.656586</ele>
        <time>2011-06-04T14:02:20Z</time>
      </trkpt>
      <trkpt lat="48.75223" lon="7.30734">
        <ele>444.305023</ele>
        <time>2011-06-04T14:02:27Z</time>
      </trkpt>
      <trkpt lat="48.75248" lon="7.30766">
        <ele>439.109711</ele>
        <time>2011-06-04T14:02:36Z</time>
      </trkpt>
      <trkpt lat="48.75269" lon="7.30797">
        <ele>435.953461</ele>
        <time>2011-06-04T14:02:45Z</time>
      </trkpt>
      <trkpt lat="48.75288" lon="7.30831">
        <ele>431.125336</ele>
        <time>2011-06-04T14:02:51Z</time>
      </trkpt>
      <trkpt lat="48.75307" lon="7.30862">
        <ele>428.765961</ele>
        <time>2011-06-04T14:02:59Z</time>
      </trkpt>
      <trkpt lat="48.75328" lon="7.30896">
        <ele>425.664398</ele>
        <time>2011-06-04T14:03:06Z</time>
      </trkpt>
      <trkpt lat="48.75351" lon="7.30927">
        <ele>423.648773</ele>
        <time>2011-06-04T14:03:13Z</time>
      </trkpt>
      <trkpt lat="48.75371" lon="7.3096">
        <ele>423.273773</ele>
        <time>2011-06-04T14:03:21Z</time>
      </trkpt>
      <trkpt lat="48.75392" lon="7.30991">
        <ele>424.687836</ele>
        <time>2011-06-04T14:03:28Z</time>
      </trkpt>
      <trkpt lat="48.75414" lon="7.31024">
        <ele>426.015961</ele>
        <time>2011-06-04T14:03:35Z</time>
      </trkpt>
      <trkpt lat="48.75435" lon="7.31056">
        <ele>427.625336</ele>
        <time>2011-06-04T14:03:42Z</time>
      </trkpt>
      <trkpt lat="48.75458" lon="7.31083">
        <ele>427.820648</ele>
        <time>2011-06-04T14:03:49Z</time>
      </trkpt>
      <trkpt lat="48.75481" lon="7.31107">
        <ele>426.125336</ele>
        <time>2011-06-04T14:03:54Z</time>
      </trkpt>
      <trkpt lat="48.75508" lon="7.31126">
        <ele>425.031586</ele>
        <time>2011-06-04T14:04:00Z</time>
      </trkpt>
      <trkpt lat="48.75534" lon="7.31142">
        <ele>422.484711</ele>
        <time>2011-06-04T14:04:03Z</time>
      </trkpt>
      <trkpt lat="48.7556" lon="7.3116">
        <ele>421.625336</ele>
        <time>2011-06-04T14:04:08Z</time>
      </trkpt>
      <trkpt lat="48.75583" lon="7.31184">
        <ele>421.851898</ele>
        <time>2011-06-04T14:04:13Z</time>
      </trkpt>
      <trkpt lat="48.75605" lon="7.31212">
        <ele>421.508148</ele>
        <time>2011-06-04T14:04:19Z</time>
      </trkpt>
      <trkpt lat="48.75631" lon="7.31234">
        <ele>420.195648</ele>
        <time>2011-06-04T14:04:24Z</time>
      </trkpt>
      <trkpt lat="48.75658" lon="7.31254">
        <ele>421.828461</ele>
        <time>2011-06-04T14:04:29Z</time>
      </trkpt>
      <trkpt lat="48.75688" lon="7.31272">
        <ele>421.023773</ele>
        <time>2011-06-04T14:04:34Z</time>
      </trkpt>
      <trkpt lat="48.75714" lon="7.31299">
        <ele>419.125336</ele>
        <time>2011-06-04T14:04:39Z</time>
      </trkpt>
      <trkpt lat="48.75739" lon="7.31319">
        <ele>420.664398</ele>
        <time>2011-06-04T14:04:44Z</time>
      </trkpt>
      <trkpt lat="48.75762" lon="7.31344">
        <ele>420.898773</ele>
        <time>2011-06-04T14:04:49Z</time>
      </trkpt>
      <trkpt lat="48.75785" lon="7.31369">
        <ele>416.640961</ele>
        <time>2011-06-04T14:04:53Z</time>
      </trkpt>
      <trkpt lat="48.75809" lon="7.31392">
        <ele>414.430023</ele>
        <time>2011-06-04T14:04:57Z</time>
      </trkpt>
      <trkpt lat="48.75835" lon="7.31416">
        <ele>412.101898</ele>
        <time>2011-06-04T14:05:01Z</time>
      </trkpt>
      <trkpt lat="48.75866" lon="7.31446">
        <ele>409.640961</ele>
        <time>2011-06-04T14:05:05Z</time>
      </trkpt>
      <trkpt lat="48.75892" lon="7.31468">
        <ele>403.789398</ele>
        <time>2011-06-04T14:05:08Z</time>
      </trkpt>
      <trkpt lat="48.7592" lon="7.31496">
        <ele>398.422211</ele>
        <time>2011-06-04T14:05:11Z</time>
      </trkpt>
      <trkpt lat="48.7595" lon="7.31521">
        <ele>396.765961</ele>
        <time>2011-06-04T14:05:14Z</time>
      </trkpt>
      <trkpt lat="48.75977" lon="7.31545">
        <ele>397.094086</ele>
        <time>2011-06-04T14:05:17Z</time>
      </trkpt>
      <trkpt lat="48.76012" lon="7.31563">
        <ele>401.445648</ele>
        <time>2011-06-04T14:05:20Z</time>
      </trkpt>
      <trkpt lat="48.7604" lon="7.31573">
        <ele>402.687836</ele>
        <time>2011-06-04T14:05:23Z</time>
      </trkpt>
      <trkpt lat="48.76076" lon="7.31584">
        <ele>403.234711</ele>
        <time>2011-06-04T14:05:27Z</time>
      </trkpt>
      <trkpt lat="48.76102" lon="7.31597">
        <ele>404.328461</ele>
        <time>2011-06-04T14:05:30Z</time>
      </trkpt>
      <trkpt lat="48.76132" lon="7.31613">
        <ele>403.039398</ele>
        <time>2011-06-04T14:05:36Z</time>
      </trkpt>
      <trkpt lat="48.76162" lon="7.31625">
        <ele>403.515961</ele>
        <time>2011-06-04T14:05:41Z</time>
      </trkpt>
      <trkpt lat="48.7619" lon="7.31631">
        <ele>403.875336</ele>
        <time>2011-06-04T14:13:15Z</time>
      </trkpt>
      <trkpt lat="48.7622" lon="7.31643">
        <ele>403.336273</ele>
        <time>2011-06-04T14:13:24Z</time>
      </trkpt>
      <trkpt lat="48.76248" lon="7.31655">
        <ele>403.055023</ele>
        <time>2011-06-04T14:13:31Z</time>
      </trkpt>
      <trkpt lat="48.76275" lon="7.31668">
        <ele>404.328461</ele>
        <time>2011-06-04T14:13:37Z</time>
      </trkpt>
      <trkpt lat="48.763" lon="7.31684">
        <ele>402.547211</ele>
        <time>2011-06-04T14:13:43Z</time>
      </trkpt>
      <trkpt lat="48.76329" lon="7.31696">
        <ele>403.984711</ele>
        <time>2011-06-04T14:13:50Z</time>
      </trkpt>
      <trkpt lat="48.76359" lon="7.31718">
        <ele>405.344086</ele>
        <time>2011-06-04T14:13:58Z</time>
      </trkpt>
      <trkpt lat="48.76383" lon="7.31749">
        <ele>404.062836</ele>
        <time>2011-06-04T14:14:02Z</time>
      </trkpt>
      <trkpt lat="48.76407" lon="7.31779">
        <ele>403.242523</ele>
        <time>2011-06-04T14:14:07Z</time>
      </trkpt>
      <trkpt lat="48.76429" lon="7.31807">
        <ele>402.555023</ele>
        <time>2011-06-04T14:14:13Z</time>
      </trkpt>
      <trkpt lat="48.76452" lon="7.31831">
        <ele>400.703461</ele>
        <time>2011-06-04T14:14:19Z</time>
      </trkpt>
      <trkpt lat="48.76474" lon="7.31856">
        <ele>398.453461</ele>
        <time>2011-06-04T14:14:26Z</time>
      </trkpt>
      <trkpt lat="48.76497" lon="7.31879">
        <ele>395.914398</ele>
        <time>2011-06-04T14:26:34Z</time>
      </trkpt>
      <trkpt lat="48.76516" lon="7.31913">
        <ele>394.219086</ele>
        <time>2011-06-04T14:26:43Z</time>
      </trkpt>
      <trkpt lat="48.76534" lon="7.31944">
        <ele>391.351898</ele>
        <time>2011-06-04T14:26:51Z</time>
      </trkpt>
      <trkpt lat="48.76548" lon="7.3198">
        <ele>386.922211</ele>
        <time>2011-06-04T14:27:11Z</time>
      </trkpt>
      <trkpt lat="48.76572" lon="7.31997">
        <ele>393.867523</ele>
        <time>2011-06-04T14:27:30Z</time>
      </trkpt>
      <trkpt lat="48.76596" lon="7.3202">
        <ele>392.305023</ele>
        <time>2011-06-04T14:27:55Z</time>
      </trkpt>
      <trkpt lat="48.76614" lon="7.3205">
        <ele>388.117523</ele>
        <time>2011-06-04T14:28:09Z</time>
      </trkpt>
      <trkpt lat="48.76638" lon="7.32071">
        <ele>382.750336</ele>
        <time>2011-06-04T14:28:19Z</time>
      </trkpt>
      <trkpt lat="48.76666" lon="7.3209">
        <ele>378.711273</ele>
        <time>2011-06-04T14:28:29Z</time>
      </trkpt>
      <trkpt lat="48.76691" lon="7.32108">
        <ele>383.211273</ele>
        <time>2011-06-04T14:28:35Z</time>
      </trkpt>
      <trkpt lat="48.76722" lon="7.32123">
        <ele>390.711273</ele>
        <time>2011-06-04T14:28:40Z</time>
      </trkpt>
      <trkpt lat="48.76748" lon="7.32135">
        <ele>394.844086</ele>
        <time>2011-06-04T14:28:47Z</time>
      </trkpt>
      <trkpt lat="48.76773" lon="7.32154">
        <ele>396.476898</ele>
        <time>2011-06-04T14:28:57Z</time>
      </trkpt>
      <trkpt lat="48.76798" lon="7.32174">
        <ele>395.219086</ele>
        <time>2011-06-04T14:29:05Z</time>
      </trkpt>
      <trkpt lat="48.76823" lon="7.32198">
        <ele>397.820648</ele>
        <time>2011-06-04T14:29:13Z</time>
      </trkpt>
      <trkpt lat="48.76848" lon="7.32222">
        <ele>400.703461</ele>
        <time>2011-06-04T14:29:19Z</time>
      </trkpt>
      <trkpt lat="48.76865" lon="7.32259">
        <ele>399.937836</ele>
        <time>2011-06-04T14:29:26Z</time>
      </trkpt>
      <trkpt lat="48.76876" lon="7.323">
        <ele>398.117523</ele>
        <time>2011-06-04T14:29:34Z</time>
      </trkpt>
      <trkpt lat="48.76899" lon="7.32326">
        <ele>397.086273</ele>
        <time>2011-06-04T14:29:44Z</time>
      </trkpt>
      <trkpt lat="48.76915" lon="7.32359">
        <ele>396.484711</ele>
        <time>2011-06-04T14:29:52Z</time>
      </trkpt>
      <trkpt lat="48.76937" lon="7.3239">
        <ele>393.305023</ele>
        <time>2011-06-04T14:30:00Z</time>
      </trkpt>
      <trkpt lat="48.76961" lon="7.32416">
        <ele>389.344086</ele>
        <time>2011-06-04T14:30:08Z</time>
      </trkpt>
      <trkpt lat="48.76979" lon="7.32455">
        <ele>386.664398</ele>
        <time>2011-06-04T14:30:14Z</time>
      </trkpt>
      <trkpt lat="48.77002" lon="7.32484">
        <ele>385.484711</ele>
        <time>2011-06-04T14:30:20Z</time>
      </trkpt>
      <trkpt lat="48.77024" lon="7.32514">
        <ele>384.117523</ele>
        <time>2011-06-04T14:30:28Z</time>
      </trkpt>
      <trkpt lat="48.77042" lon="7.3255">
        <ele>379.195648</ele>
        <time>2011-06-04T14:30:35Z</time>
      </trkpt>
      <trkpt lat="48.77068" lon="7.32582">
        <ele>375.570648</ele>
        <time>2011-06-04T14:30:41Z</time>
      </trkpt>
      <trkpt lat="48.77087" lon="7.32615">
        <ele>373.867523</ele>
        <time>2011-06-04T14:30:46Z</time>
      </trkpt>
      <trkpt lat="48.77111" lon="7.32645">
        <ele>374.219086</ele>
        <time>2011-06-04T14:30:51Z</time>
      </trkpt>
      <trkpt lat="48.77133" lon="7.32685">
        <ele>374.594086</ele>
        <time>2011-06-04T14:30:56Z</time>
      </trkpt>
      <trkpt lat="48.77152" lon="7.32723">
        <ele>374.609711</ele>
        <time>2011-06-04T14:31:01Z</time>
      </trkpt>
      <trkpt lat="48.77178" lon="7.32735">
        <ele>377.484711</ele>
        <time>2011-06-04T14:31:07Z</time>
      </trkpt>
      <trkpt lat="48.77205" lon="7.32732">
        <ele>379.906586</ele>
        <time>2011-06-04T14:31:12Z</time>
      </trkpt>
      <trkpt lat="48.77234" lon="7.32723">
        <ele>379.164398</ele>
        <time>2011-06-04T14:31:17Z</time>
      </trkpt>
      <trkpt lat="48.77258" lon="7.32696">
        <ele>379.828461</ele>
        <time>2011-06-04T14:31:26Z</time>
      </trkpt>
      <trkpt lat="48.77257" lon="7.32648">
        <ele>380.984711</ele>
        <time>2011-06-04T14:31:32Z</time>
      </trkpt>
      <trkpt lat="48.7728" lon="7.32668">
        <ele>374.633148</ele>
        <time>2011-06-04T14:31:43Z</time>
      </trkpt>
      <trkpt lat="48.77309" lon="7.32681">
        <ele>371.695648</ele>
        <time>2011-06-04T14:31:47Z</time>
      </trkpt>
      <trkpt lat="48.77336" lon="7.32679">
        <ele>370.601898</ele>
        <time>2011-06-04T14:31:51Z</time>
      </trkpt>
      <trkpt lat="48.77353" lon="7.32715">
        <ele>373.578461</ele>
        <time>2011-06-04T14:32:03Z</time>
      </trkpt>
      <trkpt lat="48.77354" lon="7.32757">
        <ele>373.851898</ele>
        <time>2011-06-04T14:32:11Z</time>
      </trkpt>
      <trkpt lat="48.77358" lon="7.32798">
        <ele>371.250336</ele>
        <time>2011-06-04T14:32:18Z</time>
      </trkpt>
      <trkpt lat="48.77367" lon="7.32839">
        <ele>367.711273</ele>
        <time>2011-06-04T14:32:26Z</time>
      </trkpt>
      <trkpt lat="48.77372" lon="7.32879">
        <ele>368.164398</ele>
        <time>2011-06-04T14:32:35Z</time>
      </trkpt>
      <trkpt lat="48.77374" lon="7.3292">
        <ele>367.875336</ele>
        <time>2011-06-04T14:32:44Z</time>
      </trkpt>
      <trkpt lat="48.77369" lon="7.32961">
        <ele>365.015961</ele>
        <time>2011-06-04T14:32:52Z</time>
      </trkpt>
      <trkpt lat="48.77372" lon="7.33005">
        <ele>361.398773</ele>
        <time>2011-06-04T14:33:03Z</time>
      </trkpt>
      <trkpt lat="48.77368" lon="7.33054">
        <ele>359.883148</ele>
        <time>2011-06-04T14:33:09Z</time>
      </trkpt>
      <trkpt lat="48.77359" lon="7.33102">
        <ele>359.023773</ele>
        <time>2011-06-04T14:33:14Z</time>
      </trkpt>
      <trkpt lat="48.77347" lon="7.33142">
        <ele>357.617523</ele>
        <time>2011-06-04T14:33:19Z</time>
      </trkpt>
      <trkpt lat="48.77343" lon="7.33188">
        <ele>355.555023</ele>
        <time>2011-06-04T14:33:23Z</time>
      </trkpt>
      <trkpt lat="48.77333" lon="7.33227">
        <ele>353.984711</ele>
        <time>2011-06-04T14:33:27Z</time>
      </trkpt>
      <trkpt lat="48.77317" lon="7.33271">
        <ele>352.094086</ele>
        <time>2011-06-04T14:33:33Z</time>
      </trkpt>
      <trkpt lat="48.77303" lon="7.33314">
        <ele>352.133148</ele>
        <time>2011-06-04T14:33:38Z</time>
      </trkpt>
      <trkpt lat="48.77285" lon="7.33352">
        <ele>353.047211</ele>
        <time>2011-06-04T14:33:43Z</time>
      </trkpt>
      <trkpt lat="48.77271" lon="7.33388">
        <ele>355.570648</ele>
        <time>2011-06-04T14:33:49Z</time>
      </trkpt>
      <trkpt lat="48.77258" lon="7.33427">
        <ele>355.851898</ele>
        <time>2011-06-04T14:33:57Z</time>
      </trkpt>
      <trkpt lat="48.77255" lon="7.33469">
        <ele>354.109711</ele>
        <time>2011-06-04T14:34:03Z</time>
      </trkpt>
      <trkpt lat="48.77259" lon="7.33512">
        <ele>357.914398</ele>
        <time>2011-06-04T14:34:08Z</time>
      </trkpt>
      <trkpt lat="48.77268" lon="7.33552">
        <ele>361.640961</ele>
        <time>2011-06-04T14:34:12Z</time>
      </trkpt>
      <trkpt lat="48.7728" lon="7.33596">
        <ele>358.555023</ele>
        <time>2011-06-04T14:34:17Z</time>
      </trkpt>
      <trkpt lat="48.77293" lon="7.33634">
        <ele>357.359711</ele>
        <time>2011-06-04T14:34:23Z</time>
      </trkpt>
      <trkpt lat="48.77304" lon="7.33672">
        <ele>356.305023</ele>
        <time>2011-06-04T14:34:28Z</time>
      </trkpt>
      <trkpt lat="48.77302" lon="7.3372">
        <ele>356.320648</ele>
        <time>2011-06-04T14:34:35Z</time>
      </trkpt>
      <trkpt lat="48.77296" lon="7.33762">
        <ele>359.297211</ele>
        <time>2011-06-04T14:34:41Z</time>
      </trkpt>
      <trkpt lat="48.77278" lon="7.33794">
        <ele>358.890961</ele>
        <time>2011-06-04T14:34:50Z</time>
      </trkpt>
      <trkpt lat="48.77266" lon="7.3383">
        <ele>353.383148</ele>
        <time>2011-06-04T14:35:02Z</time>
      </trkpt>
      <trkpt lat="48.77259" lon="7.33871">
        <ele>346.062836</ele>
        <time>2011-06-04T14:35:10Z</time>
      </trkpt>
      <trkpt lat="48.77249" lon="7.33918">
        <ele>351.781586</ele>
        <time>2011-06-04T14:35:18Z</time>
      </trkpt>
      <trkpt lat="48.77243" lon="7.33962">
        <ele>345.515961</ele>
        <time>2011-06-04T14:35:25Z</time>
      </trkpt>
      <trkpt lat="48.77248" lon="7.34002">
        <ele>343.000336</ele>
        <time>2011-06-04T14:35:31Z</time>
      </trkpt>
      <trkpt lat="48.77261" lon="7.34045">
        <ele>339.148773</ele>
        <time>2011-06-04T14:35:37Z</time>
      </trkpt>
      <trkpt lat="48.7728" lon="7.34085">
        <ele>336.508148</ele>
        <time>2011-06-04T14:35:42Z</time>
      </trkpt>
      <trkpt lat="48.77293" lon="7.34126">
        <ele>335.187836</ele>
        <time>2011-06-04T14:35:47Z</time>
      </trkpt>
      <trkpt lat="48.77308" lon="7.34161">
        <ele>332.219086</ele>
        <time>2011-06-04T14:35:55Z</time>
      </trkpt>
      <trkpt lat="48.77314" lon="7.34211">
        <ele>332.875336</ele>
        <time>2011-06-04T14:35:59Z</time>
      </trkpt>
      <trkpt lat="48.77317" lon="7.34251">
        <ele>328.547211</ele>
        <time>2011-06-04T14:36:06Z</time>
      </trkpt>
      <trkpt lat="48.77307" lon="7.34295">
        <ele>326.617523</ele>
        <time>2011-06-04T14:36:11Z</time>
      </trkpt>
      <trkpt lat="48.77296" lon="7.34334">
        <ele>326.000336</ele>
        <time>2011-06-04T14:36:15Z</time>
      </trkpt>
      <trkpt lat="48.77269" lon="7.3435">
        <ele>326.367523</ele>
        <time>2011-06-04T14:36:19Z</time>
      </trkpt>
      <trkpt lat="48.77242" lon="7.34348">
        <ele>327.672211</ele>
        <time>2011-06-04T14:36:23Z</time>
      </trkpt>
      <trkpt lat="48.77214" lon="7.34343">
        <ele>328.344086</ele>
        <time>2011-06-04T14:36:27Z</time>
      </trkpt>
      <trkpt lat="48.77184" lon="7.34339">
        <ele>329.445648</ele>
        <time>2011-06-04T14:36:31Z</time>
      </trkpt>
      <trkpt lat="48.77157" lon="7.34331">
        <ele>331.109711</ele>
        <time>2011-06-04T14:36:35Z</time>
      </trkpt>
      <trkpt lat="48.77128" lon="7.34324">
        <ele>334.203461</ele>
        <time>2011-06-04T14:36:39Z</time>
      </trkpt>
      <trkpt lat="48.77096" lon="7.34328">
        <ele>340.101898</ele>
        <time>2011-06-04T14:36:43Z</time>
      </trkpt>
      <trkpt lat="48.7707" lon="7.34331">
        <ele>345.250336</ele>
        <time>2011-06-04T14:36:46Z</time>
      </trkpt>
      <trkpt lat="48.77036" lon="7.34328">
        <ele>347.625336</ele>
        <time>2011-06-04T14:36:50Z</time>
      </trkpt>
      <trkpt lat="48.77008" lon="7.3433">
        <ele>355.148773</ele>
        <time>2011-06-04T14:36:53Z</time>
      </trkpt>
      <trkpt lat="48.76982" lon="7.34317">
        <ele>357.008148</ele>
        <time>2011-06-04T14:36:56Z</time>
      </trkpt>
      <trkpt lat="48.76948" lon="7.34301">
        <ele>359.797211</ele>
        <time>2011-06-04T14:37:00Z</time>
      </trkpt>
      <trkpt lat="48.76916" lon="7.34283">
        <ele>362.930023</ele>
        <time>2011-06-04T14:37:04Z</time>
      </trkpt>
      <trkpt lat="48.76887" lon="7.34264">
        <ele>365.031586</ele>
        <time>2011-06-04T14:37:08Z</time>
      </trkpt>
      <trkpt lat="48.76856" lon="7.34245">
        <ele>367.461273</ele>
        <time>2011-06-04T14:37:12Z</time>
      </trkpt>
      <trkpt lat="48.76824" lon="7.34236">
        <ele>370.211273</ele>
        <time>2011-06-04T14:37:16Z</time>
      </trkpt>
      <trkpt lat="48.76793" lon="7.34256">
        <ele>371.812836</ele>
        <time>2011-06-04T14:37:20Z</time>
      </trkpt>
      <trkpt lat="48.76771" lon="7.34282">
        <ele>372.101898</ele>
        <time>2011-06-04T14:37:23Z</time>
      </trkpt>
      <trkpt lat="48.7675" lon="7.34307">
        <ele>372.555023</ele>
        <time>2011-06-04T14:37:26Z</time>
      </trkpt>
      <trkpt lat="48.76728" lon="7.34333">
        <ele>372.328461</ele>
        <time>2011-06-04T14:37:29Z</time>
      </trkpt>
      <trkpt lat="48.767" lon="7.34363">
        <ele>378.351898</ele>
        <time>2011-06-04T14:37:33Z</time>
      </trkpt>
      <trkpt lat="48.76677" lon="7.34394">
        <ele>380.469086</ele>
        <time>2011-06-04T14:37:37Z</time>
      </trkpt>
      <trkpt lat="48.76656" lon="7.34423">
        <ele>381.797211</ele>
        <time>2011-06-04T14:37:41Z</time>
      </trkpt>
      <trkpt lat="48.76642" lon="7.34466">
        <ele>380.617523</ele>
        <time>2011-06-04T14:37:46Z</time>
      </trkpt>
      <trkpt lat="48.76635" lon="7.34508">
        <ele>380.094086</ele>
        <time>2011-06-04T14:37:52Z</time>
      </trkpt>
      <trkpt lat="48.76632" lon="7.34551">
        <ele>381.492523</ele>
        <time>2011-06-04T14:37:58Z</time>
      </trkpt>
      <trkpt lat="48.76638" lon="7.34592">
        <ele>380.414398</ele>
        <time>2011-06-04T14:38:02Z</time>
      </trkpt>
      <trkpt lat="48.7665" lon="7.34634">
        <ele>378.851898</ele>
        <time>2011-06-04T14:38:06Z</time>
      </trkpt>
      <trkpt lat="48.76664" lon="7.34675">
        <ele>378.445648</ele>
        <time>2011-06-04T14:38:10Z</time>
      </trkpt>
      <trkpt lat="48.76675" lon="7.34716">
        <ele>377.594086</ele>
        <time>2011-06-04T14:38:14Z</time>
      </trkpt>
      <trkpt lat="48.7669" lon="7.34762">
        <ele>380.422211</ele>
        <time>2011-06-04T14:38:18Z</time>
      </trkpt>
      <trkpt lat="48.76708" lon="7.34804">
        <ele>379.265961</ele>
        <time>2011-06-04T14:38:22Z</time>
      </trkpt>
      <trkpt lat="48.76726" lon="7.34836">
        <ele>377.203461</ele>
        <time>2011-06-04T14:38:25Z</time>
      </trkpt>
      <trkpt lat="48.76749" lon="7.34865">
        <ele>374.742523</ele>
        <time>2011-06-04T14:38:28Z</time>
      </trkpt>
      <trkpt lat="48.76776" lon="7.34888">
        <ele>375.422211</ele>
        <time>2011-06-04T14:38:31Z</time>
      </trkpt>
      <trkpt lat="48.76802" lon="7.34902">
        <ele>375.258148</ele>
        <time>2011-06-04T14:38:34Z</time>
      </trkpt>
      <trkpt lat="48.76829" lon="7.34915">
        <ele>375.508148</ele>
        <time>2011-06-04T14:38:37Z</time>
      </trkpt>
      <trkpt lat="48.76863" lon="7.34933">
        <ele>374.555023</ele>
        <time>2011-06-04T14:38:41Z</time>
      </trkpt>
      <trkpt lat="48.76889" lon="7.34957">
        <ele>373.883148</ele>
        <time>2011-06-04T14:38:45Z</time>
      </trkpt>
      <trkpt lat="48.76914" lon="7.34983">
        <ele>375.906586</ele>
        <time>2011-06-04T14:38:49Z</time>
      </trkpt>
      <trkpt lat="48.76938" lon="7.3501">
        <ele>376.086273</ele>
        <time>2011-06-04T14:38:54Z</time>
      </trkpt>
      <trkpt lat="48.76962" lon="7.35042">
        <ele>374.422211</ele>
        <time>2011-06-04T14:39:00Z</time>
      </trkpt>
      <trkpt lat="48.76983" lon="7.35071">
        <ele>372.547211</ele>
        <time>2011-06-04T14:39:07Z</time>
      </trkpt>
      <trkpt lat="48.7701" lon="7.35095">
        <ele>370.547211</ele>
        <time>2011-06-04T14:39:13Z</time>
      </trkpt>
      <trkpt lat="48.77034" lon="7.35121">
        <ele>373.156586</ele>
        <time>2011-06-04T14:39:18Z</time>
      </trkpt>
      <trkpt lat="48.77063" lon="7.35124">
        <ele>375.000336</ele>
        <time>2011-06-04T14:39:22Z</time>
      </trkpt>
      <trkpt lat="48.77093" lon="7.35127">
        <ele>378.726898</ele>
        <time>2011-06-04T14:39:27Z</time>
      </trkpt>
      <trkpt lat="48.77121" lon="7.35119">
        <ele>383.437836</ele>
        <time>2011-06-04T14:39:34Z</time>
      </trkpt>
      <trkpt lat="48.77151" lon="7.35108">
        <ele>384.687836</ele>
        <time>2011-06-04T14:39:40Z</time>
      </trkpt>
      <trkpt lat="48.77177" lon="7.35096">
        <ele>385.961273</ele>
        <time>2011-06-04T14:39:46Z</time>
      </trkpt>
      <trkpt lat="48.77205" lon="7.35113">
        <ele>384.773773</ele>
        <time>2011-06-04T14:39:52Z</time>
      </trkpt>
      <trkpt lat="48.77218" lon="7.3515">
        <ele>382.703461</ele>
        <time>2011-06-04T14:39:59Z</time>
      </trkpt>
      <trkpt lat="48.7722" lon="7.35192">
        <ele>381.672211</ele>
        <time>2011-06-04T14:40:03Z</time>
      </trkpt>
      <trkpt lat="48.77226" lon="7.35235">
        <ele>379.930023</ele>
        <time>2011-06-04T14:40:08Z</time>
      </trkpt>
      <trkpt lat="48.77229" lon="7.35285">
        <ele>377.273773</ele>
        <time>2011-06-04T14:40:13Z</time>
      </trkpt>
      <trkpt lat="48.77222" lon="7.35341">
        <ele>374.890961</ele>
        <time>2011-06-04T14:40:17Z</time>
      </trkpt>
      <trkpt lat="48.77213" lon="7.35398">
        <ele>373.055023</ele>
        <time>2011-06-04T14:40:20Z</time>
      </trkpt>
      <trkpt lat="48.77201" lon="7.35441">
        <ele>370.664398</ele>
        <time>2011-06-04T14:40:23Z</time>
      </trkpt>
      <trkpt lat="48.77195" lon="7.35481">
        <ele>369.078461</ele>
        <time>2011-06-04T14:40:25Z</time>
      </trkpt>
      <trkpt lat="48.77186" lon="7.35536">
        <ele>366.758148</ele>
        <time>2011-06-04T14:40:28Z</time>
      </trkpt>
      <trkpt lat="48.77185" lon="7.35585">
        <ele>364.383148</ele>
        <time>2011-06-04T14:40:31Z</time>
      </trkpt>
      <trkpt lat="48.77202" lon="7.35633">
        <ele>361.672211</ele>
        <time>2011-06-04T14:40:34Z</time>
      </trkpt>
      <trkpt lat="48.77227" lon="7.35664">
        <ele>358.289398</ele>
        <time>2011-06-04T14:40:37Z</time>
      </trkpt>
      <trkpt lat="48.77247" lon="7.357">
        <ele>356.414398</ele>
        <time>2011-06-04T14:40:40Z</time>
      </trkpt>
      <trkpt lat="48.77266" lon="7.35745">
        <ele>353.164398</ele>
        <time>2011-06-04T14:40:44Z</time>
      </trkpt>
      <trkpt lat="48.7728" lon="7.3579">
        <ele>350.180023</ele>
        <time>2011-06-04T14:40:48Z</time>
      </trkpt>
      <trkpt lat="48.773" lon="7.35826">
        <ele>346.094086</ele>
        <time>2011-06-04T14:40:53Z</time>
      </trkpt>
      <trkpt lat="48.77326" lon="7.35853">
        <ele>340.594086</ele>
        <time>2011-06-04T14:41:00Z</time>
      </trkpt>
      <trkpt lat="48.77338" lon="7.35894">
        <ele>337.945648</ele>
        <time>2011-06-04T14:41:04Z</time>
      </trkpt>
      <trkpt lat="48.77353" lon="7.35929">
        <ele>338.453461</ele>
        <time>2011-06-04T14:41:10Z</time>
      </trkpt>
      <trkpt lat="48.77369" lon="7.35967">
        <ele>333.984711</ele>
        <time>2011-06-04T14:41:19Z</time>
      </trkpt>
      <trkpt lat="48.77385" lon="7.36002">
        <ele>332.750336</ele>
        <time>2011-06-04T14:41:28Z</time>
      </trkpt>
      <trkpt lat="48.77403" lon="7.36033">
        <ele>337.539398</ele>
        <time>2011-06-04T14:41:35Z</time>
      </trkpt>
      <trkpt lat="48.77408" lon="7.36072">
        <ele>349.187836</ele>
        <time>2011-06-04T14:41:40Z</time>
      </trkpt>
      <trkpt lat="48.77428" lon="7.36106">
        <ele>353.781586</ele>
        <time>2011-06-04T14:41:48Z</time>
      </trkpt>
      <trkpt lat="48.77444" lon="7.3614">
        <ele>354.250336</ele>
        <time>2011-06-04T14:41:56Z</time>
      </trkpt>
      <trkpt lat="48.77463" lon="7.36173">
        <ele>354.664398</ele>
        <time>2011-06-04T14:42:04Z</time>
      </trkpt>
      <trkpt lat="48.77485" lon="7.36201">
        <ele>360.328461</ele>
        <time>2011-06-04T14:42:13Z</time>
      </trkpt>
      <trkpt lat="48.77502" lon="7.36231">
        <ele>367.086273</ele>
        <time>2011-06-04T14:42:36Z</time>
      </trkpt>
      <trkpt lat="48.7748" lon="7.36207">
        <ele>381.812836</ele>
        <time>2011-06-04T14:52:38Z</time>
      </trkpt>
      <trkpt lat="48.77461" lon="7.36174">
        <ele>382.664398</ele>
        <time>2011-06-04T14:52:45Z</time>
      </trkpt>
      <trkpt lat="48.77445" lon="7.36136">
        <ele>382.023773</ele>
        <time>2011-06-04T14:52:52Z</time>
      </trkpt>
      <trkpt lat="48.77425" lon="7.36107">
        <ele>383.586273</ele>
        <time>2011-06-04T14:52:59Z</time>
      </trkpt>
      <trkpt lat="48.77408" lon="7.36073">
        <ele>387.140961</ele>
        <time>2011-06-04T14:53:06Z</time>
      </trkpt>
      <trkpt lat="48.7739" lon="7.36033">
        <ele>386.398773</ele>
        <time>2011-06-04T14:53:14Z</time>
      </trkpt>
      <trkpt lat="48.7737" lon="7.36002">
        <ele>384.281586</ele>
        <time>2011-06-04T14:53:21Z</time>
      </trkpt>
      <trkpt lat="48.77348" lon="7.35976">
        <ele>382.164398</ele>
        <time>2011-06-04T14:53:26Z</time>
      </trkpt>
      <trkpt lat="48.77325" lon="7.35947">
        <ele>378.250336</ele>
        <time>2011-06-04T14:53:33Z</time>
      </trkpt>
      <trkpt lat="48.77312" lon="7.35908">
        <ele>377.515961</ele>
        <time>2011-06-04T14:53:42Z</time>
      </trkpt>
      <trkpt lat="48.7729" lon="7.3588">
        <ele>376.937836</ele>
        <time>2011-06-04T14:53:49Z</time>
      </trkpt>
      <trkpt lat="48.77265" lon="7.35859">
        <ele>377.305023</ele>
        <time>2011-06-04T14:53:55Z</time>
      </trkpt>
      <trkpt lat="48.77241" lon="7.35825">
        <ele>376.265961</ele>
        <time>2011-06-04T14:54:03Z</time>
      </trkpt>
      <trkpt lat="48.77223" lon="7.35789">
        <ele>375.062836</ele>
        <time>2011-06-04T14:54:11Z</time>
      </trkpt>
      <trkpt lat="48.77206" lon="7.35758">
        <ele>373.414398</ele>
        <time>2011-06-04T14:54:17Z</time>
      </trkpt>
      <trkpt lat="48.77182" lon="7.35735">
        <ele>369.805023</ele>
        <time>2011-06-04T14:54:25Z</time>
      </trkpt>
      <trkpt lat="48.7716" lon="7.35706">
        <ele>367.851898</ele>
        <time>2011-06-04T14:54:30Z</time>
      </trkpt>
      <trkpt lat="48.77142" lon="7.35663">
        <ele>364.000336</ele>
        <time>2011-06-04T14:54:35Z</time>
      </trkpt>
      <trkpt lat="48.77134" lon="7.35618">
        <ele>359.875336</ele>
        <time>2011-06-04T14:54:40Z</time>
      </trkpt>
      <trkpt lat="48.77132" lon="7.35576">
        <ele>353.226898</ele>
        <time>2011-06-04T14:54:48Z</time>
      </trkpt>
      <trkpt lat="48.77136" lon="7.35535">
        <ele>344.258148</ele>
        <time>2011-06-04T14:54:58Z</time>
      </trkpt>
      <trkpt lat="48.77144" lon="7.35485">
        <ele>341.211273</ele>
        <time>2011-06-04T14:55:26Z</time>
      </trkpt>
      <trkpt lat="48.77142" lon="7.35444">
        <ele>340.726898</ele>
        <time>2011-06-04T14:55:37Z</time>
      </trkpt>
      <trkpt lat="48.77144" lon="7.35399">
        <ele>339.562836</ele>
        <time>2011-06-04T14:55:52Z</time>
      </trkpt>
      <trkpt lat="48.77144" lon="7.35355">
        <ele>337.797211</ele>
        <time>2011-06-04T14:56:22Z</time>
      </trkpt>
      <trkpt lat="48.77123" lon="7.35321">
        <ele>336.648773</ele>
        <time>2011-06-04T14:56:31Z</time>
      </trkpt>
      <trkpt lat="48.77105" lon="7.35289">
        <ele>337.734711</ele>
        <time>2011-06-04T14:56:34Z</time>
      </trkpt>
      <trkpt lat="48.77077" lon="7.35276">
        <ele>336.094086</ele>
        <time>2011-06-04T14:56:39Z</time>
      </trkpt>
      <trkpt lat="48.77049" lon="7.35257">
        <ele>334.937836</ele>
        <time>2011-06-04T14:56:44Z</time>
      </trkpt>
      <trkpt lat="48.77017" lon="7.3526">
        <ele>334.609711</ele>
        <time>2011-06-04T14:56:49Z</time>
      </trkpt>
      <trkpt lat="48.76984" lon="7.35263">
        <ele>332.969086</ele>
        <time>2011-06-04T14:56:54Z</time>
      </trkpt>
      <trkpt lat="48.76959" lon="7.35249">
        <ele>331.265961</ele>
        <time>2011-06-04T14:56:59Z</time>
      </trkpt>
      <trkpt lat="48.76931" lon="7.35234">
        <ele>330.594086</ele>
        <time>2011-06-04T14:57:05Z</time>
      </trkpt>
      <trkpt lat="48.76904" lon="7.35214">
        <ele>331.664398</ele>
        <time>2011-06-04T14:57:14Z</time>
      </trkpt>
      <trkpt lat="48.76886" lon="7.3518">
        <ele>330.765961</ele>
        <time>2011-06-04T14:57:22Z</time>
      </trkpt>
      <trkpt lat="48.76864" lon="7.35206">
        <ele>339.164398</ele>
        <time>2011-06-04T14:57:31Z</time>
      </trkpt>
      <trkpt lat="48.76855" lon="7.3525">
        <ele>341.398773</ele>
        <time>2011-06-04T14:57:38Z</time>
      </trkpt>
      <trkpt lat="48.76847" lon="7.35297">
        <ele>335.258148</ele>
        <time>2011-06-04T14:57:44Z</time>
      </trkpt>
      <trkpt lat="48.76831" lon="7.35334">
        <ele>329.625336</ele>
        <time>2011-06-04T14:57:49Z</time>
      </trkpt>
      <trkpt lat="48.76804" lon="7.35353">
        <ele>332.312836</ele>
        <time>2011-06-04T14:57:55Z</time>
      </trkpt>
      <trkpt lat="48.76778" lon="7.35326">
        <ele>326.359711</ele>
        <time>2011-06-04T14:58:01Z</time>
      </trkpt>
      <trkpt lat="48.76759" lon="7.35287">
        <ele>320.000336</ele>
        <time>2011-06-04T14:58:06Z</time>
      </trkpt>
      <trkpt lat="48.7674" lon="7.35252">
        <ele>316.687836</ele>
        <time>2011-06-04T14:58:10Z</time>
      </trkpt>
      <trkpt lat="48.76724" lon="7.35217">
        <ele>315.398773</ele>
        <time>2011-06-04T14:58:14Z</time>
      </trkpt>
      <trkpt lat="48.76703" lon="7.35181">
        <ele>313.422211</ele>
        <time>2011-06-04T14:58:19Z</time>
      </trkpt>
      <trkpt lat="48.76676" lon="7.35168">
        <ele>316.000336</ele>
        <time>2011-06-04T14:58:24Z</time>
      </trkpt>
      <trkpt lat="48.76653" lon="7.35142">
        <ele>311.844086</ele>
        <time>2011-06-04T14:58:32Z</time>
      </trkpt>
      <trkpt lat="48.76632" lon="7.35111">
        <ele>304.992523</ele>
        <time>2011-06-04T14:58:40Z</time>
      </trkpt>
      <trkpt lat="48.76601" lon="7.35108">
        <ele>300.976898</ele>
        <time>2011-06-04T14:58:46Z</time>
      </trkpt>
      <trkpt lat="48.76573" lon="7.35107">
        <ele>301.844086</ele>
        <time>2011-06-04T14:59:28Z</time>
      </trkpt>
      <trkpt lat="48.76544" lon="7.35116">
        <ele>299.859711</ele>
        <time>2011-06-04T14:59:37Z</time>
      </trkpt>
      <trkpt lat="48.76521" lon="7.35141">
        <ele>297.906586</ele>
        <time>2011-06-04T14:59:47Z</time>
      </trkpt>
      <trkpt lat="48.76502" lon="7.35167">
        <ele>287.390961</ele>
        <time>2011-06-04T15:00:03Z</time>
      </trkpt>
      <trkpt lat="48.76507" lon="7.3521">
        <ele>280.383148</ele>
        <time>2011-06-04T15:00:12Z</time>
      </trkpt>
      <trkpt lat="48.76512" lon="7.35252">
        <ele>277.117523</ele>
        <time>2011-06-04T15:00:19Z</time>
      </trkpt>
      <trkpt lat="48.76495" lon="7.35291">
        <ele>272.812836</ele>
        <time>2011-06-04T15:00:25Z</time>
      </trkpt>
      <trkpt lat="48.76475" lon="7.3533">
        <ele>270.515961</ele>
        <time>2011-06-04T15:00:29Z</time>
      </trkpt>
      <trkpt lat="48.76459" lon="7.35364">
        <ele>271.273773</ele>
        <time>2011-06-04T15:00:33Z</time>
      </trkpt>
      <trkpt lat="48.76436" lon="7.35344">
        <ele>264.906586</ele>
        <time>2011-06-04T15:02:09Z</time>
      </trkpt>
      <trkpt lat="48.76415" lon="7.35316">
        <ele>262.578461</ele>
        <time>2011-06-04T15:02:16Z</time>
      </trkpt>
      <trkpt lat="48.7639" lon="7.35296">
        <ele>263.351898</ele>
        <time>2011-06-04T15:02:23Z</time>
      </trkpt>
      <trkpt lat="48.7636" lon="7.35295">
        <ele>262.383148</ele>
        <time>2011-06-04T15:02:29Z</time>
      </trkpt>
      <trkpt lat="48.7633" lon="7.35299">
        <ele>260.461273</ele>
        <time>2011-06-04T15:02:34Z</time>
      </trkpt>
      <trkpt lat="48.76298" lon="7.35303">
        <ele>259.172211</ele>
        <time>2011-06-04T15:02:39Z</time>
      </trkpt>
      <trkpt lat="48.76265" lon="7.35301">
        <ele>258.023773</ele>
        <time>2011-06-04T15:02:45Z</time>
      </trkpt>
      <trkpt lat="48.76234" lon="7.35294">
        <ele>256.047211</ele>
        <time>2011-06-04T15:02:50Z</time>
      </trkpt>
      <trkpt lat="48.76204" lon="7.35286">
        <ele>252.972824</ele>
        <time>2011-06-04T15:02:54Z</time>
      </trkpt>
      <trkpt lat="48.7617" lon="7.35274">
        <ele>250.828293</ele>
        <time>2011-06-04T15:02:58Z</time>
      </trkpt>
      <trkpt lat="48.76142" lon="7.35263">
        <ele>249.465012</ele>
        <time>2011-06-04T15:03:01Z</time>
      </trkpt>
      <trkpt lat="48.76119" lon="7.35239">
        <ele>247.668137</ele>
        <time>2011-06-04T15:03:04Z</time>
      </trkpt>
      <trkpt lat="48.76099" lon="7.35207">
        <ele>246.000168</ele>
        <time>2011-06-04T15:03:07Z</time>
      </trkpt>
      <trkpt lat="48.76077" lon="7.35176">
        <ele>243.433762</ele>
        <time>2011-06-04T15:03:11Z</time>
      </trkpt>
      <trkpt lat="48.76057" lon="7.35147">
        <ele>239.375168</ele>
        <time>2011-06-04T15:03:20Z</time>
      </trkpt>
      <trkpt lat="48.76029" lon="7.35132">
        <ele>231.488449</ele>
        <time>2011-06-04T15:04:08Z</time>
      </trkpt>
      <trkpt lat="48.76004" lon="7.35149">
        <ele>228.50798</ele>
        <time>2011-06-04T15:04:50Z</time>
      </trkpt>
      <trkpt lat="48.75982" lon="7.35171">
        <ele>221.937668</ele>
        <time>2011-06-04T15:05:16Z</time>
      </trkpt>
      <trkpt lat="48.75957" lon="7.35197">
        <ele>219.113449</ele>
        <time>2011-06-04T15:05:22Z</time>
      </trkpt>
      <trkpt lat="48.75927" lon="7.35209">
        <ele>217.000168</ele>
        <time>2011-06-04T15:05:27Z</time>
      </trkpt>
      <trkpt lat="48.75902" lon="7.35233">
        <ele>216.425949</ele>
        <time>2011-06-04T15:05:31Z</time>
      </trkpt>
      <trkpt lat="48.75874" lon="7.35255">
        <ele>216.000168</ele>
        <time>2011-06-04T15:05:35Z</time>
      </trkpt>
      <trkpt lat="48.75846" lon="7.35259">
        <ele>214.593918</ele>
        <time>2011-06-04T15:05:39Z</time>
      </trkpt>
      <trkpt lat="48.75818" lon="7.35254">
        <ele>214.812668</ele>
        <time>2011-06-04T15:05:44Z</time>
      </trkpt>
      <trkpt lat="48.75787" lon="7.35254">
        <ele>219.285324</ele>
        <time>2011-06-04T15:05:51Z</time>
      </trkpt>
      <trkpt lat="48.7576" lon="7.35259">
        <ele>221.297043</ele>
        <time>2011-06-04T15:06:00Z</time>
      </trkpt>
      <trkpt lat="48.7573" lon="7.35254">
        <ele>222.765793</ele>
        <time>2011-06-04T15:06:10Z</time>
      </trkpt>
      <trkpt lat="48.75703" lon="7.35241">
        <ele>222.050949</ele>
        <time>2011-06-04T15:06:20Z</time>
      </trkpt>
      <trkpt lat="48.75676" lon="7.35236">
        <ele>219.207199</ele>
        <time>2011-06-04T15:06:30Z</time>
      </trkpt>
      <trkpt lat="48.75645" lon="7.35231">
        <ele>220.168137</ele>
        <time>2011-06-04T15:06:37Z</time>
      </trkpt>
      <trkpt lat="48.75617" lon="7.35227">
        <ele>220.429855</ele>
        <time>2011-06-04T15:06:42Z</time>
      </trkpt>
      <trkpt lat="48.75589" lon="7.35224">
        <ele>220.457199</ele>
        <time>2011-06-04T15:07:19Z</time>
      </trkpt>
      <trkpt lat="48.75563" lon="7.35236">
        <ele>220.13298</ele>
        <time>2011-06-04T15:07:25Z</time>
      </trkpt>
      <trkpt lat="48.75536" lon="7.35243">
        <ele>223.10173</ele>
        <time>2011-06-04T15:07:31Z</time>
      </trkpt>
      <trkpt lat="48.75506" lon="7.35251">
        <ele>223.906418</ele>
        <time>2011-06-04T15:07:38Z</time>
      </trkpt>
      <trkpt lat="48.75477" lon="7.35263">
        <ele>226.117355</ele>
        <time>2011-06-04T15:07:44Z</time>
      </trkpt>
      <trkpt lat="48.75448" lon="7.35273">
        <ele>228.222824</ele>
        <time>2011-06-04T15:07:50Z</time>
      </trkpt>
      <trkpt lat="48.7542" lon="7.35286">
        <ele>230.562668</ele>
        <time>2011-06-04T15:07:56Z</time>
      </trkpt>
      <trkpt lat="48.75391" lon="7.35296">
        <ele>232.062668</ele>
        <time>2011-06-04T15:08:02Z</time>
      </trkpt>
      <trkpt lat="48.75363" lon="7.35303">
        <ele>232.593918</ele>
        <time>2011-06-04T15:08:08Z</time>
      </trkpt>
      <trkpt lat="48.75336" lon="7.35307">
        <ele>234.35173</ele>
        <time>2011-06-04T15:08:15Z</time>
      </trkpt>
      <trkpt lat="48.75307" lon="7.35308">
        <ele>236.281418</ele>
        <time>2011-06-04T15:08:22Z</time>
      </trkpt>
      <trkpt lat="48.75277" lon="7.35307">
        <ele>234.35173</ele>
        <time>2011-06-04T15:08:30Z</time>
      </trkpt>
      <trkpt lat="48.75246" lon="7.35304">
        <ele>232.015793</ele>
        <time>2011-06-04T15:08:37Z</time>
      </trkpt>
      <trkpt lat="48.75217" lon="7.353">
        <ele>229.672043</ele>
        <time>2011-06-04T15:08:42Z</time>
      </trkpt>
      <trkpt lat="48.7519" lon="7.35299">
        <ele>226.691574</ele>
        <time>2011-06-04T15:08:46Z</time>
      </trkpt>
      <trkpt lat="48.75159" lon="7.35298">
        <ele>225.890793</ele>
        <time>2011-06-04T15:08:50Z</time>
      </trkpt>
      <trkpt lat="48.75126" lon="7.35294">
        <ele>222.656418</ele>
        <time>2011-06-04T15:08:54Z</time>
      </trkpt>
      <trkpt lat="48.75092" lon="7.35291">
        <ele>222.183762</ele>
        <time>2011-06-04T15:08:58Z</time>
      </trkpt>
      <trkpt lat="48.75063" lon="7.3529">
        <ele>220.125168</ele>
        <time>2011-06-04T15:09:02Z</time>
      </trkpt>
      <trkpt lat="48.75034" lon="7.35299">
        <ele>218.093918</ele>
        <time>2011-06-04T15:09:07Z</time>
      </trkpt>
      <trkpt lat="48.75006" lon="7.35313">
        <ele>217.300949</ele>
        <time>2011-06-04T15:09:14Z</time>
      </trkpt>
      <trkpt lat="48.74977" lon="7.35321">
        <ele>217.72673</ele>
        <time>2011-06-04T15:09:20Z</time>
      </trkpt>
      <trkpt lat="48.74951" lon="7.35334">
        <ele>216.816574</ele>
        <time>2011-06-04T15:09:26Z</time>
      </trkpt>
      <trkpt lat="48.74925" lon="7.3535">
        <ele>217.60173</ele>
        <time>2011-06-04T15:09:32Z</time>
      </trkpt>
      <trkpt lat="48.74899" lon="7.35371">
        <ele>217.261887</ele>
        <time>2011-06-04T15:09:37Z</time>
      </trkpt>
      <trkpt lat="48.74873" lon="7.35394">
        <ele>217.297043</ele>
        <time>2011-06-04T15:09:42Z</time>
      </trkpt>
      <trkpt lat="48.7485" lon="7.35421">
        <ele>217.562668</ele>
        <time>2011-06-04T15:09:47Z</time>
      </trkpt>
      <trkpt lat="48.74827" lon="7.3545">
        <ele>216.422043</ele>
        <time>2011-06-04T15:09:52Z</time>
      </trkpt>
      <trkpt lat="48.74807" lon="7.35478">
        <ele>215.113449</ele>
        <time>2011-06-04T15:09:57Z</time>
      </trkpt>
      <trkpt lat="48.74782" lon="7.35501">
        <ele>213.953293</ele>
        <time>2011-06-04T15:10:02Z</time>
      </trkpt>
      <trkpt lat="48.74756" lon="7.35532">
        <ele>212.074387</ele>
        <time>2011-06-04T15:10:07Z</time>
      </trkpt>
      <trkpt lat="48.74729" lon="7.35562">
        <ele>208.086105</ele>
        <time>2011-06-04T15:10:12Z</time>
      </trkpt>
      <trkpt lat="48.74707" lon="7.35591">
        <ele>204.816574</ele>
        <time>2011-06-04T15:10:16Z</time>
      </trkpt>
      <trkpt lat="48.74685" lon="7.35621">
        <ele>202.203293</ele>
        <time>2011-06-04T15:10:20Z</time>
      </trkpt>
      <trkpt lat="48.74661" lon="7.3564">
        <ele>200.69548</ele>
        <time>2011-06-04T15:10:24Z</time>
      </trkpt>
      <trkpt lat="48.74631" lon="7.3564">
        <ele>198.191574</ele>
        <time>2011-06-04T15:10:29Z</time>
      </trkpt>
      <trkpt lat="48.74602" lon="7.35629">
        <ele>195.85173</ele>
        <time>2011-06-04T15:10:35Z</time>
      </trkpt>
      <trkpt lat="48.74572" lon="7.35614">
        <ele>193.574387</ele>
        <time>2011-06-04T15:10:40Z</time>
      </trkpt>
      <trkpt lat="48.74544" lon="7.35602">
        <ele>193.004074</ele>
        <time>2011-06-04T15:10:45Z</time>
      </trkpt>
      <trkpt lat="48.74519" lon="7.35581">
        <ele>189.863449</ele>
        <time>2011-06-04T15:11:28Z</time>
      </trkpt>
      <trkpt lat="48.74487" lon="7.35597">
        <ele>190.941574</ele>
        <time>2011-06-04T15:11:33Z</time>
      </trkpt>
      <trkpt lat="48.74455" lon="7.35612">
        <ele>190.086105</ele>
        <time>2011-06-04T15:11:38Z</time>
      </trkpt>
      <trkpt lat="48.74427" lon="7.3563">
        <ele>190.32048</ele>
        <time>2011-06-04T15:11:43Z</time>
      </trkpt>
      <trkpt lat="48.74402" lon="7.3565">
        <ele>191.242355</ele>
        <time>2011-06-04T15:11:49Z</time>
      </trkpt>
      <trkpt lat="48.74376" lon="7.35672">
        <ele>190.699387</ele>
        <time>2011-06-04T15:11:55Z</time>
      </trkpt>
      <trkpt lat="48.74347" lon="7.35692">
        <ele>189.293137</ele>
        <time>2011-06-04T15:12:01Z</time>
      </trkpt>
      <trkpt lat="48.74315" lon="7.35699">
        <ele>187.53923</ele>
        <time>2011-06-04T15:12:06Z</time>
      </trkpt>
      <trkpt lat="48.74282" lon="7.35703">
        <ele>186.457199</ele>
        <time>2011-06-04T15:12:11Z</time>
      </trkpt>
      <trkpt lat="48.7425" lon="7.35716">
        <ele>187.69548</ele>
        <time>2011-06-04T15:12:16Z</time>
      </trkpt>
      <trkpt lat="48.74225" lon="7.35735">
        <ele>188.840012</ele>
        <time>2011-06-04T15:12:21Z</time>
      </trkpt>
      <trkpt lat="48.74203" lon="7.35764">
        <ele>190.422043</ele>
        <time>2011-06-04T15:12:28Z</time>
      </trkpt>
      <trkpt lat="48.74189" lon="7.358">
        <ele>192.300949</ele>
        <time>2011-06-04T15:12:34Z</time>
      </trkpt>
      <trkpt lat="48.74177" lon="7.35837">
        <ele>193.492355</ele>
        <time>2011-06-04T15:13:12Z</time>
      </trkpt>
      <trkpt lat="48.74164" lon="7.35876">
        <ele>194.88298</ele>
        <time>2011-06-04T15:13:21Z</time>
      </trkpt>
      <trkpt lat="48.74145" lon="7.3591">
        <ele>193.656418</ele>
        <time>2011-06-04T15:13:27Z</time>
      </trkpt>
      <trkpt lat="48.74121" lon="7.35939">
        <ele>193.761887</ele>
        <time>2011-06-04T15:13:33Z</time>
      </trkpt>
      <trkpt lat="48.74098" lon="7.35968">
        <ele>197.761887</ele>
        <time>2011-06-04T15:13:40Z</time>
      </trkpt>
      <trkpt lat="48.74078" lon="7.35939">
        <ele>200.023605</ele>
        <time>2011-06-04T15:13:51Z</time>
      </trkpt>
      <trkpt lat="48.74072" lon="7.35899">
        <ele>202.168137</ele>
        <time>2011-06-04T15:14:01Z</time>
      </trkpt>
      <trkpt lat="48.74075" lon="7.35852">
        <ele>204.617355</ele>
        <time>2011-06-04T15:14:09Z</time>
      </trkpt>
      <trkpt lat="48.74076" lon="7.35806">
        <ele>202.203293</ele>
        <time>2011-06-04T15:14:18Z</time>
      </trkpt>
      <trkpt lat="48.74078" lon="7.35761">
        <ele>198.437668</ele>
        <time>2011-06-04T15:14:25Z</time>
      </trkpt>
      <trkpt lat="48.74066" lon="7.35724">
        <ele>199.715012</ele>
        <time>2011-06-04T15:14:32Z</time>
      </trkpt>
      <trkpt lat="48.74038" lon="7.3572">
        <ele>201.652512</ele>
        <time>2011-06-04T15:14:39Z</time>
      </trkpt>
      <trkpt lat="48.74011" lon="7.35707">
        <ele>204.062668</ele>
        <time>2011-06-04T15:14:47Z</time>
      </trkpt>
      <trkpt lat="48.73983" lon="7.35693">
        <ele>206.218918</ele>
        <time>2011-06-04T15:14:55Z</time>
      </trkpt>
      <trkpt lat="48.73957" lon="7.35675">
        <ele>209.031418</ele>
        <time>2011-06-04T15:15:04Z</time>
      </trkpt>
      <trkpt lat="48.73934" lon="7.35654">
        <ele>210.75798</ele>
        <time>2011-06-04T15:15:12Z</time>
      </trkpt>
      <trkpt lat="48.73909" lon="7.35631">
        <ele>213.640793</ele>
        <time>2011-06-04T15:15:21Z</time>
      </trkpt>
      <trkpt lat="48.73887" lon="7.35601">
        <ele>213.894699</ele>
        <time>2011-06-04T15:15:32Z</time>
      </trkpt>
      <trkpt lat="48.73864" lon="7.35575">
        <ele>216.44548</ele>
        <time>2011-06-04T15:15:43Z</time>
      </trkpt>
      <trkpt lat="48.73839" lon="7.35557">
        <ele>221.41423</ele>
        <time>2011-06-04T15:15:53Z</time>
      </trkpt>
      <trkpt lat="48.73814" lon="7.35539">
        <ele>221.605637</ele>
        <time>2011-06-04T15:16:04Z</time>
      </trkpt>
      <trkpt lat="48.73391" lon="7.3526">
        <ele>246.066574</ele>
        <time>2011-06-04T15:18:47Z</time>
      </trkpt>
    </trkseg>
  </trk>
</gpx>